<?xml version="1.0" encoding="UTF-8" standalone="no" ?>
<gpx xmlns="http://www.topografix.com/GPX/1/1" xmlns:xsi="http://www.w3.org/2001/XMLSchema-instance" xsi:schemaLocation="http://www.topografix.com/GPX/1/1 http://www.topografix.com/GPX/1/1/gpx.xsd" version="1.1" creator="VisuGPX - https://www.visugpx.com">
  <metadata>
    <name>durance cyclo</name>
    <desc><![CDATA[Quelques circuits le long de la durance]]></desc>
  </metadata>
  <trk>
    <name><![CDATA[N°63  Monetier/Le Poet/Lac Mison/Upaix]]></name>
    <trkseg>
      <trkpt lat="44.38602" lon="5.94066">
        <ele>637.4914551</ele>
        <time>2016-02-15T10:33:02Z</time>
      </trkpt>
      <trkpt lat="44.38623" lon="5.94082">
        <ele>636.5302734</ele>
        <time>2016-02-15T10:33:22Z</time>
      </trkpt>
      <trkpt lat="44.38623" lon="5.94072">
        <ele>637.4914551</ele>
        <time>2016-02-15T10:33:39Z</time>
      </trkpt>
      <trkpt lat="44.38614" lon="5.94049">
        <ele>637.4914551</ele>
        <time>2016-02-15T10:34:01Z</time>
      </trkpt>
      <trkpt lat="44.38617" lon="5.94048">
        <ele>637.4914551</ele>
        <time>2016-02-15T10:34:23Z</time>
      </trkpt>
      <trkpt lat="44.3861" lon="5.94054">
        <ele>637.972168</ele>
        <time>2016-02-15T10:34:50Z</time>
      </trkpt>
      <trkpt lat="44.38607" lon="5.94063">
        <ele>637.4914551</ele>
        <time>2016-02-15T10:35:09Z</time>
      </trkpt>
      <trkpt lat="44.38596" lon="5.94065">
        <ele>637.4914551</ele>
        <time>2016-02-15T10:35:13Z</time>
      </trkpt>
      <trkpt lat="44.38589" lon="5.94069">
        <ele>637.4914551</ele>
        <time>2016-02-15T10:35:16Z</time>
      </trkpt>
      <trkpt lat="44.3858" lon="5.94075">
        <ele>637.4914551</ele>
        <time>2016-02-15T10:35:22Z</time>
      </trkpt>
      <trkpt lat="44.38578" lon="5.94067">
        <ele>637.0107422</ele>
        <time>2016-02-15T10:35:27Z</time>
      </trkpt>
      <trkpt lat="44.38579" lon="5.94063">
        <ele>637.4914551</ele>
        <time>2016-02-15T10:35:29Z</time>
      </trkpt>
      <trkpt lat="44.38551" lon="5.94183">
        <ele>637.4914551</ele>
        <time>2016-02-15T10:35:47Z</time>
      </trkpt>
      <trkpt lat="44.38531" lon="5.94017">
        <ele>636.5302734</ele>
        <time>2016-02-15T10:36:05Z</time>
      </trkpt>
      <trkpt lat="44.38501" lon="5.93918">
        <ele>635.0881348</ele>
        <time>2016-02-15T10:36:17Z</time>
      </trkpt>
      <trkpt lat="44.38508" lon="5.93908">
        <ele>635.0881348</ele>
        <time>2016-02-15T10:36:26Z</time>
      </trkpt>
      <trkpt lat="44.38509" lon="5.93909">
        <ele>635.0881348</ele>
        <time>2016-02-15T10:36:40Z</time>
      </trkpt>
      <trkpt lat="44.38513" lon="5.93908">
        <ele>635.0881348</ele>
        <time>2016-02-15T10:37:09Z</time>
      </trkpt>
      <trkpt lat="44.38505" lon="5.93935">
        <ele>634.6074219</ele>
        <time>2016-02-15T10:37:14Z</time>
      </trkpt>
      <trkpt lat="44.38508" lon="5.9391">
        <ele>636.0495605</ele>
        <time>2016-02-15T10:37:22Z</time>
      </trkpt>
      <trkpt lat="44.38532" lon="5.93898">
        <ele>637.972168</ele>
        <time>2016-02-15T10:37:37Z</time>
      </trkpt>
      <trkpt lat="44.38549" lon="5.93896">
        <ele>640.3754883</ele>
        <time>2016-02-15T10:37:51Z</time>
      </trkpt>
      <trkpt lat="44.38568" lon="5.93894">
        <ele>642.2980957</ele>
        <time>2016-02-15T10:38:07Z</time>
      </trkpt>
      <trkpt lat="44.38591" lon="5.9389">
        <ele>644.7011719</ele>
        <time>2016-02-15T10:38:25Z</time>
      </trkpt>
      <trkpt lat="44.38608" lon="5.93889">
        <ele>647.1044922</ele>
        <time>2016-02-15T10:38:39Z</time>
      </trkpt>
      <trkpt lat="44.38616" lon="5.93885">
        <ele>648.065918</ele>
        <time>2016-02-15T10:38:48Z</time>
      </trkpt>
      <trkpt lat="44.38637" lon="5.93873">
        <ele>650.4692383</ele>
        <time>2016-02-15T10:39:07Z</time>
      </trkpt>
      <trkpt lat="44.38644" lon="5.9386">
        <ele>650.949707</ele>
        <time>2016-02-15T10:39:14Z</time>
      </trkpt>
      <trkpt lat="44.38674" lon="5.93816">
        <ele>651.9111328</ele>
        <time>2016-02-15T10:39:27Z</time>
      </trkpt>
      <trkpt lat="44.38678" lon="5.93807">
        <ele>652.3918457</ele>
        <time>2016-02-15T10:39:33Z</time>
      </trkpt>
      <trkpt lat="44.38693" lon="5.93768">
        <ele>654.795166</ele>
        <time>2016-02-15T10:39:56Z</time>
      </trkpt>
      <trkpt lat="44.38704" lon="5.93729">
        <ele>656.7177734</ele>
        <time>2016-02-15T10:40:13Z</time>
      </trkpt>
      <trkpt lat="44.38711" lon="5.93678">
        <ele>658.6403809</ele>
        <time>2016-02-15T10:40:32Z</time>
      </trkpt>
      <trkpt lat="44.38717" lon="5.93612">
        <ele>659.6018066</ele>
        <time>2016-02-15T10:40:53Z</time>
      </trkpt>
      <trkpt lat="44.38717" lon="5.93607">
        <ele>659.1210938</ele>
        <time>2016-02-15T10:40:55Z</time>
      </trkpt>
      <trkpt lat="44.38713" lon="5.93595">
        <ele>658.6403809</ele>
        <time>2016-02-15T10:41:00Z</time>
      </trkpt>
      <trkpt lat="44.38706" lon="5.9359">
        <ele>653.3532715</ele>
        <time>2016-02-15T10:41:03Z</time>
      </trkpt>
      <trkpt lat="44.38701" lon="5.93587">
        <ele>648.065918</ele>
        <time>2016-02-15T10:41:05Z</time>
      </trkpt>
      <trkpt lat="44.38694" lon="5.93582">
        <ele>643.2592773</ele>
        <time>2016-02-15T10:41:07Z</time>
      </trkpt>
      <trkpt lat="44.38688" lon="5.93578">
        <ele>638.4528809</ele>
        <time>2016-02-15T10:41:09Z</time>
      </trkpt>
      <trkpt lat="44.3868" lon="5.93573">
        <ele>633.6459961</ele>
        <time>2016-02-15T10:41:11Z</time>
      </trkpt>
      <trkpt lat="44.38671" lon="5.93567">
        <ele>629.3200684</ele>
        <time>2016-02-15T10:41:13Z</time>
      </trkpt>
      <trkpt lat="44.3866" lon="5.9356">
        <ele>625.4748535</ele>
        <time>2016-02-15T10:41:15Z</time>
      </trkpt>
      <trkpt lat="44.38649" lon="5.93553">
        <ele>622.1103516</ele>
        <time>2016-02-15T10:41:17Z</time>
      </trkpt>
      <trkpt lat="44.38637" lon="5.93544">
        <ele>618.7456055</ele>
        <time>2016-02-15T10:41:19Z</time>
      </trkpt>
      <trkpt lat="44.38624" lon="5.93535">
        <ele>615.3811035</ele>
        <time>2016-02-15T10:41:21Z</time>
      </trkpt>
      <trkpt lat="44.38611" lon="5.93524">
        <ele>611.5358887</ele>
        <time>2016-02-15T10:41:23Z</time>
      </trkpt>
      <trkpt lat="44.38597" lon="5.93514">
        <ele>608.6518555</ele>
        <time>2016-02-15T10:41:25Z</time>
      </trkpt>
      <trkpt lat="44.38582" lon="5.93502">
        <ele>605.2873535</ele>
        <time>2016-02-15T10:41:27Z</time>
      </trkpt>
      <trkpt lat="44.38559" lon="5.93485">
        <ele>601.9226074</ele>
        <time>2016-02-15T10:41:30Z</time>
      </trkpt>
      <trkpt lat="44.38536" lon="5.93468">
        <ele>598.0773926</ele>
        <time>2016-02-15T10:41:33Z</time>
      </trkpt>
      <trkpt lat="44.38506" lon="5.93446">
        <ele>594.7126465</ele>
        <time>2016-02-15T10:41:37Z</time>
      </trkpt>
      <trkpt lat="44.38499" lon="5.9344">
        <ele>594.7126465</ele>
        <time>2016-02-15T10:41:38Z</time>
      </trkpt>
      <trkpt lat="44.38469" lon="5.9342">
        <ele>591.3481445</ele>
        <time>2016-02-15T10:41:42Z</time>
      </trkpt>
      <trkpt lat="44.38425" lon="5.9339">
        <ele>588.4643555</ele>
        <time>2016-02-15T10:41:48Z</time>
      </trkpt>
      <trkpt lat="44.38398" lon="5.93369">
        <ele>586.5415039</ele>
        <time>2016-02-15T10:41:52Z</time>
      </trkpt>
      <trkpt lat="44.38323" lon="5.93319">
        <ele>583.1767578</ele>
        <time>2016-02-15T10:42:04Z</time>
      </trkpt>
      <trkpt lat="44.38235" lon="5.9326">
        <ele>580.7736816</ele>
        <time>2016-02-15T10:42:23Z</time>
      </trkpt>
      <trkpt lat="44.38153" lon="5.93204">
        <ele>579.331543</ele>
        <time>2016-02-15T10:42:43Z</time>
      </trkpt>
      <trkpt lat="44.38056" lon="5.93134">
        <ele>577.8896484</ele>
        <time>2016-02-15T10:43:03Z</time>
      </trkpt>
      <trkpt lat="44.37962" lon="5.93065">
        <ele>576.4477539</ele>
        <time>2016-02-15T10:43:21Z</time>
      </trkpt>
      <trkpt lat="44.3786" lon="5.92994">
        <ele>576.4477539</ele>
        <time>2016-02-15T10:43:40Z</time>
      </trkpt>
      <trkpt lat="44.37756" lon="5.92924">
        <ele>576.4477539</ele>
        <time>2016-02-15T10:44:01Z</time>
      </trkpt>
      <trkpt lat="44.37709" lon="5.92888">
        <ele>575.967041</ele>
        <time>2016-02-15T10:44:11Z</time>
      </trkpt>
      <trkpt lat="44.37622" lon="5.92831">
        <ele>576.9284668</ele>
        <time>2016-02-15T10:44:30Z</time>
      </trkpt>
      <trkpt lat="44.37549" lon="5.9278">
        <ele>577.4091797</ele>
        <time>2016-02-15T10:44:47Z</time>
      </trkpt>
      <trkpt lat="44.37544" lon="5.92777">
        <ele>577.4091797</ele>
        <time>2016-02-15T10:44:48Z</time>
      </trkpt>
      <trkpt lat="44.37465" lon="5.92722">
        <ele>578.3703613</ele>
        <time>2016-02-15T10:45:07Z</time>
      </trkpt>
      <trkpt lat="44.37387" lon="5.92666">
        <ele>578.8510742</ele>
        <time>2016-02-15T10:45:27Z</time>
      </trkpt>
      <trkpt lat="44.37309" lon="5.92604">
        <ele>576.9284668</ele>
        <time>2016-02-15T10:45:44Z</time>
      </trkpt>
      <trkpt lat="44.37206" lon="5.9251">
        <ele>574.5251465</ele>
        <time>2016-02-15T10:46:01Z</time>
      </trkpt>
      <trkpt lat="44.37113" lon="5.92428">
        <ele>574.5251465</ele>
        <time>2016-02-15T10:46:18Z</time>
      </trkpt>
      <trkpt lat="44.37025" lon="5.92352">
        <ele>575.967041</ele>
        <time>2016-02-15T10:46:39Z</time>
      </trkpt>
      <trkpt lat="44.36958" lon="5.92299">
        <ele>576.9284668</ele>
        <time>2016-02-15T10:46:59Z</time>
      </trkpt>
      <trkpt lat="44.36896" lon="5.92254">
        <ele>579.331543</ele>
        <time>2016-02-15T10:47:20Z</time>
      </trkpt>
      <trkpt lat="44.36851" lon="5.92227">
        <ele>581.7348633</ele>
        <time>2016-02-15T10:47:40Z</time>
      </trkpt>
      <trkpt lat="44.36843" lon="5.9222">
        <ele>582.6962891</ele>
        <time>2016-02-15T10:47:44Z</time>
      </trkpt>
      <trkpt lat="44.36786" lon="5.92193">
        <ele>580.2929688</ele>
        <time>2016-02-15T10:47:59Z</time>
      </trkpt>
      <trkpt lat="44.36764" lon="5.92182">
        <ele>578.8510742</ele>
        <time>2016-02-15T10:48:02Z</time>
      </trkpt>
      <trkpt lat="44.36632" lon="5.92144">
        <ele>578.3703613</ele>
        <time>2016-02-15T10:48:20Z</time>
      </trkpt>
      <trkpt lat="44.36518" lon="5.92077">
        <ele>578.3703613</ele>
        <time>2016-02-15T10:48:40Z</time>
      </trkpt>
      <trkpt lat="44.36424" lon="5.92012">
        <ele>578.3703613</ele>
        <time>2016-02-15T10:48:58Z</time>
      </trkpt>
      <trkpt lat="44.36316" lon="5.91937">
        <ele>578.8510742</ele>
        <time>2016-02-15T10:49:20Z</time>
      </trkpt>
      <trkpt lat="44.36187" lon="5.91848">
        <ele>579.8122559</ele>
        <time>2016-02-15T10:49:46Z</time>
      </trkpt>
      <trkpt lat="44.36041" lon="5.91744">
        <ele>579.8122559</ele>
        <time>2016-02-15T10:50:14Z</time>
      </trkpt>
      <trkpt lat="44.35913" lon="5.91658">
        <ele>580.2929688</ele>
        <time>2016-02-15T10:50:39Z</time>
      </trkpt>
      <trkpt lat="44.358" lon="5.91581">
        <ele>580.2929688</ele>
        <time>2016-02-15T10:51:01Z</time>
      </trkpt>
      <trkpt lat="44.35702" lon="5.9151">
        <ele>579.8122559</ele>
        <time>2016-02-15T10:51:20Z</time>
      </trkpt>
      <trkpt lat="44.35623" lon="5.91458">
        <ele>580.7736816</ele>
        <time>2016-02-15T10:51:36Z</time>
      </trkpt>
      <trkpt lat="44.35566" lon="5.91418">
        <ele>582.6962891</ele>
        <time>2016-02-15T10:51:50Z</time>
      </trkpt>
      <trkpt lat="44.35515" lon="5.91389">
        <ele>583.6574707</ele>
        <time>2016-02-15T10:52:03Z</time>
      </trkpt>
      <trkpt lat="44.35429" lon="5.9133">
        <ele>582.2155762</ele>
        <time>2016-02-15T10:52:21Z</time>
      </trkpt>
      <trkpt lat="44.3532" lon="5.91248">
        <ele>581.2543945</ele>
        <time>2016-02-15T10:52:42Z</time>
      </trkpt>
      <trkpt lat="44.35221" lon="5.91162">
        <ele>580.2929688</ele>
        <time>2016-02-15T10:53:01Z</time>
      </trkpt>
      <trkpt lat="44.35131" lon="5.91077">
        <ele>576.9284668</ele>
        <time>2016-02-15T10:53:16Z</time>
      </trkpt>
      <trkpt lat="44.3503" lon="5.90984">
        <ele>574.0444336</ele>
        <time>2016-02-15T10:53:30Z</time>
      </trkpt>
      <trkpt lat="44.349" lon="5.90873">
        <ele>572.1218262</ele>
        <time>2016-02-15T10:53:47Z</time>
      </trkpt>
      <trkpt lat="44.34816" lon="5.90808">
        <ele>573.083252</ele>
        <time>2016-02-15T10:54:03Z</time>
      </trkpt>
      <trkpt lat="44.34764" lon="5.90765">
        <ele>574.5251465</ele>
        <time>2016-02-15T10:54:19Z</time>
      </trkpt>
      <trkpt lat="44.34703" lon="5.90719">
        <ele>576.4477539</ele>
        <time>2016-02-15T10:54:42Z</time>
      </trkpt>
      <trkpt lat="44.34654" lon="5.90691">
        <ele>579.8122559</ele>
        <time>2016-02-15T10:55:04Z</time>
      </trkpt>
      <trkpt lat="44.34641" lon="5.90683">
        <ele>581.2543945</ele>
        <time>2016-02-15T10:55:11Z</time>
      </trkpt>
      <trkpt lat="44.34605" lon="5.90653">
        <ele>582.2155762</ele>
        <time>2016-02-15T10:55:28Z</time>
      </trkpt>
      <trkpt lat="44.34536" lon="5.90595">
        <ele>582.2155762</ele>
        <time>2016-02-15T10:55:50Z</time>
      </trkpt>
      <trkpt lat="44.34458" lon="5.90527">
        <ele>582.6962891</ele>
        <time>2016-02-15T10:56:12Z</time>
      </trkpt>
      <trkpt lat="44.34416" lon="5.90473">
        <ele>584.6188965</ele>
        <time>2016-02-15T10:56:29Z</time>
      </trkpt>
      <trkpt lat="44.34387" lon="5.9045">
        <ele>585.0996094</ele>
        <time>2016-02-15T10:56:41Z</time>
      </trkpt>
      <trkpt lat="44.34368" lon="5.90438">
        <ele>583.1767578</ele>
        <time>2016-02-15T10:56:45Z</time>
      </trkpt>
      <trkpt lat="44.34355" lon="5.90431">
        <ele>581.2543945</ele>
        <time>2016-02-15T10:56:47Z</time>
      </trkpt>
      <trkpt lat="44.34283" lon="5.90366">
        <ele>581.7348633</ele>
        <time>2016-02-15T10:57:00Z</time>
      </trkpt>
      <trkpt lat="44.34251" lon="5.90328">
        <ele>584.1381836</ele>
        <time>2016-02-15T10:57:12Z</time>
      </trkpt>
      <trkpt lat="44.34242" lon="5.90318">
        <ele>585.0996094</ele>
        <time>2016-02-15T10:57:17Z</time>
      </trkpt>
      <trkpt lat="44.34213" lon="5.90279">
        <ele>587.5026855</ele>
        <time>2016-02-15T10:57:34Z</time>
      </trkpt>
      <trkpt lat="44.34181" lon="5.90237">
        <ele>590.8674316</ele>
        <time>2016-02-15T10:57:54Z</time>
      </trkpt>
      <trkpt lat="44.34143" lon="5.90194">
        <ele>593.7514648</ele>
        <time>2016-02-15T10:58:16Z</time>
      </trkpt>
      <trkpt lat="44.34092" lon="5.90144">
        <ele>593.270752</ele>
        <time>2016-02-15T10:58:34Z</time>
      </trkpt>
      <trkpt lat="44.34067" lon="5.90121">
        <ele>590.3869629</ele>
        <time>2016-02-15T10:58:39Z</time>
      </trkpt>
      <trkpt lat="44.34035" lon="5.90093">
        <ele>587.0219727</ele>
        <time>2016-02-15T10:58:44Z</time>
      </trkpt>
      <trkpt lat="44.34028" lon="5.90086">
        <ele>587.0219727</ele>
        <time>2016-02-15T10:58:45Z</time>
      </trkpt>
      <trkpt lat="44.34006" lon="5.90067">
        <ele>585.0996094</ele>
        <time>2016-02-15T10:58:48Z</time>
      </trkpt>
      <trkpt lat="44.33931" lon="5.89984">
        <ele>587.5026855</ele>
        <time>2016-02-15T10:59:01Z</time>
      </trkpt>
      <trkpt lat="44.33841" lon="5.89901">
        <ele>583.1767578</ele>
        <time>2016-02-15T10:59:19Z</time>
      </trkpt>
      <trkpt lat="44.33835" lon="5.89896">
        <ele>583.1767578</ele>
        <time>2016-02-15T10:59:20Z</time>
      </trkpt>
      <trkpt lat="44.33799" lon="5.89869">
        <ele>580.7736816</ele>
        <time>2016-02-15T10:59:25Z</time>
      </trkpt>
      <trkpt lat="44.33693" lon="5.89793">
        <ele>580.2929688</ele>
        <time>2016-02-15T10:59:39Z</time>
      </trkpt>
      <trkpt lat="44.33681" lon="5.89784">
        <ele>581.7348633</ele>
        <time>2016-02-15T10:59:41Z</time>
      </trkpt>
      <trkpt lat="44.33588" lon="5.89736">
        <ele>581.7348633</ele>
        <time>2016-02-15T10:59:58Z</time>
      </trkpt>
      <trkpt lat="44.33556" lon="5.8972">
        <ele>582.2155762</ele>
        <time>2016-02-15T11:00:04Z</time>
      </trkpt>
      <trkpt lat="44.33529" lon="5.89705">
        <ele>581.7348633</ele>
        <time>2016-02-15T11:00:09Z</time>
      </trkpt>
      <trkpt lat="44.33513" lon="5.89699">
        <ele>581.7348633</ele>
        <time>2016-02-15T11:00:12Z</time>
      </trkpt>
      <trkpt lat="44.33498" lon="5.89691">
        <ele>582.2155762</ele>
        <time>2016-02-15T11:00:15Z</time>
      </trkpt>
      <trkpt lat="44.33381" lon="5.89638">
        <ele>581.2543945</ele>
        <time>2016-02-15T11:00:36Z</time>
      </trkpt>
      <trkpt lat="44.33287" lon="5.89598">
        <ele>581.7348633</ele>
        <time>2016-02-15T11:00:54Z</time>
      </trkpt>
      <trkpt lat="44.33195" lon="5.8956">
        <ele>582.2155762</ele>
        <time>2016-02-15T11:01:13Z</time>
      </trkpt>
      <trkpt lat="44.33101" lon="5.89534">
        <ele>581.7348633</ele>
        <time>2016-02-15T11:01:31Z</time>
      </trkpt>
      <trkpt lat="44.33081" lon="5.89527">
        <ele>581.7348633</ele>
        <time>2016-02-15T11:01:35Z</time>
      </trkpt>
      <trkpt lat="44.32989" lon="5.8949">
        <ele>582.2155762</ele>
        <time>2016-02-15T11:01:53Z</time>
      </trkpt>
      <trkpt lat="44.32898" lon="5.89437">
        <ele>581.7348633</ele>
        <time>2016-02-15T11:02:11Z</time>
      </trkpt>
      <trkpt lat="44.328" lon="5.89369">
        <ele>581.2543945</ele>
        <time>2016-02-15T11:02:31Z</time>
      </trkpt>
      <trkpt lat="44.32712" lon="5.89307">
        <ele>581.7348633</ele>
        <time>2016-02-15T11:02:49Z</time>
      </trkpt>
      <trkpt lat="44.32661" lon="5.89268">
        <ele>581.7348633</ele>
        <time>2016-02-15T11:03:00Z</time>
      </trkpt>
      <trkpt lat="44.32633" lon="5.89251">
        <ele>582.2155762</ele>
        <time>2016-02-15T11:03:07Z</time>
      </trkpt>
      <trkpt lat="44.32543" lon="5.89201">
        <ele>580.2929688</ele>
        <time>2016-02-15T11:03:25Z</time>
      </trkpt>
      <trkpt lat="44.32444" lon="5.89168">
        <ele>580.2929688</ele>
        <time>2016-02-15T11:03:42Z</time>
      </trkpt>
      <trkpt lat="44.3236" lon="5.89141">
        <ele>580.2929688</ele>
        <time>2016-02-15T11:03:58Z</time>
      </trkpt>
      <trkpt lat="44.32307" lon="5.89121">
        <ele>580.7736816</ele>
        <time>2016-02-15T11:04:09Z</time>
      </trkpt>
      <trkpt lat="44.32216" lon="5.89094">
        <ele>580.2929688</ele>
        <time>2016-02-15T11:04:28Z</time>
      </trkpt>
      <trkpt lat="44.32131" lon="5.89069">
        <ele>580.7736816</ele>
        <time>2016-02-15T11:04:45Z</time>
      </trkpt>
      <trkpt lat="44.32074" lon="5.89058">
        <ele>581.7348633</ele>
        <time>2016-02-15T11:05:00Z</time>
      </trkpt>
      <trkpt lat="44.32027" lon="5.89048">
        <ele>583.1767578</ele>
        <time>2016-02-15T11:05:16Z</time>
      </trkpt>
      <trkpt lat="44.32019" lon="5.89043">
        <ele>584.1381836</ele>
        <time>2016-02-15T11:05:19Z</time>
      </trkpt>
      <trkpt lat="44.32012" lon="5.89031">
        <ele>584.6188965</ele>
        <time>2016-02-15T11:05:30Z</time>
      </trkpt>
      <trkpt lat="44.32011" lon="5.89031">
        <ele>584.6188965</ele>
        <time>2016-02-15T11:05:31Z</time>
      </trkpt>
      <trkpt lat="44.32009" lon="5.89026">
        <ele>585.0996094</ele>
        <time>2016-02-15T11:05:46Z</time>
      </trkpt>
      <trkpt lat="44.32005" lon="5.89028">
        <ele>584.6188965</ele>
        <time>2016-02-15T11:07:03Z</time>
      </trkpt>
      <trkpt lat="44.32008" lon="5.89028">
        <ele>584.6188965</ele>
        <time>2016-02-15T11:07:19Z</time>
      </trkpt>
      <trkpt lat="44.32006" lon="5.89031">
        <ele>585.0996094</ele>
        <time>2016-02-15T11:08:04Z</time>
      </trkpt>
      <trkpt lat="44.32003" lon="5.89033">
        <ele>584.6188965</ele>
        <time>2016-02-15T11:08:26Z</time>
      </trkpt>
      <trkpt lat="44.32001" lon="5.89033">
        <ele>584.6188965</ele>
        <time>2016-02-15T11:08:38Z</time>
      </trkpt>
      <trkpt lat="44.31972" lon="5.89008">
        <ele>586.060791</ele>
        <time>2016-02-15T11:08:53Z</time>
      </trkpt>
      <trkpt lat="44.31924" lon="5.88989">
        <ele>587.0219727</ele>
        <time>2016-02-15T11:09:10Z</time>
      </trkpt>
      <trkpt lat="44.31877" lon="5.88992">
        <ele>587.9833984</ele>
        <time>2016-02-15T11:09:26Z</time>
      </trkpt>
      <trkpt lat="44.31821" lon="5.89025">
        <ele>589.90625</ele>
        <time>2016-02-15T11:09:47Z</time>
      </trkpt>
      <trkpt lat="44.31764" lon="5.89066">
        <ele>590.8674316</ele>
        <time>2016-02-15T11:10:09Z</time>
      </trkpt>
      <trkpt lat="44.31699" lon="5.8909">
        <ele>592.7902832</ele>
        <time>2016-02-15T11:10:33Z</time>
      </trkpt>
      <trkpt lat="44.31644" lon="5.89094">
        <ele>594.2321777</ele>
        <time>2016-02-15T11:10:53Z</time>
      </trkpt>
      <trkpt lat="44.31583" lon="5.8909">
        <ele>596.1547852</ele>
        <time>2016-02-15T11:11:16Z</time>
      </trkpt>
      <trkpt lat="44.31541" lon="5.89089">
        <ele>597.5966797</ele>
        <time>2016-02-15T11:11:32Z</time>
      </trkpt>
      <trkpt lat="44.31519" lon="5.89088">
        <ele>599.0385742</ele>
        <time>2016-02-15T11:11:48Z</time>
      </trkpt>
      <trkpt lat="44.31515" lon="5.89089">
        <ele>598.5578613</ele>
        <time>2016-02-15T11:12:28Z</time>
      </trkpt>
      <trkpt lat="44.31479" lon="5.89091">
        <ele>598.5578613</ele>
        <time>2016-02-15T11:12:41Z</time>
      </trkpt>
      <trkpt lat="44.31441" lon="5.89099">
        <ele>598.5578613</ele>
        <time>2016-02-15T11:12:53Z</time>
      </trkpt>
      <trkpt lat="44.31407" lon="5.89106">
        <ele>598.5578613</ele>
        <time>2016-02-15T11:13:02Z</time>
      </trkpt>
      <trkpt lat="44.31352" lon="5.89115">
        <ele>598.5578613</ele>
        <time>2016-02-15T11:13:16Z</time>
      </trkpt>
      <trkpt lat="44.31303" lon="5.89124">
        <ele>600</ele>
        <time>2016-02-15T11:13:29Z</time>
      </trkpt>
      <trkpt lat="44.31279" lon="5.89127">
        <ele>599.5192871</ele>
        <time>2016-02-15T11:13:35Z</time>
      </trkpt>
      <trkpt lat="44.31245" lon="5.89128">
        <ele>599.0385742</ele>
        <time>2016-02-15T11:13:43Z</time>
      </trkpt>
      <trkpt lat="44.31154" lon="5.89146">
        <ele>597.5966797</ele>
        <time>2016-02-15T11:14:01Z</time>
      </trkpt>
      <trkpt lat="44.31061" lon="5.89156">
        <ele>596.635498</ele>
        <time>2016-02-15T11:14:21Z</time>
      </trkpt>
      <trkpt lat="44.30978" lon="5.89175">
        <ele>595.1933594</ele>
        <time>2016-02-15T11:14:38Z</time>
      </trkpt>
      <trkpt lat="44.30912" lon="5.89196">
        <ele>591.8288574</ele>
        <time>2016-02-15T11:14:48Z</time>
      </trkpt>
      <trkpt lat="44.30842" lon="5.89217">
        <ele>588.9450684</ele>
        <time>2016-02-15T11:14:57Z</time>
      </trkpt>
      <trkpt lat="44.30761" lon="5.89242">
        <ele>585.0996094</ele>
        <time>2016-02-15T11:15:06Z</time>
      </trkpt>
      <trkpt lat="44.30645" lon="5.89277">
        <ele>584.6188965</ele>
        <time>2016-02-15T11:15:21Z</time>
      </trkpt>
      <trkpt lat="44.30553" lon="5.89306">
        <ele>585.0996094</ele>
        <time>2016-02-15T11:15:37Z</time>
      </trkpt>
      <trkpt lat="44.30526" lon="5.89312">
        <ele>584.6188965</ele>
        <time>2016-02-15T11:15:43Z</time>
      </trkpt>
      <trkpt lat="44.30512" lon="5.89312">
        <ele>585.0996094</ele>
        <time>2016-02-15T11:15:52Z</time>
      </trkpt>
      <trkpt lat="44.30512" lon="5.89312">
        <ele>585.5800781</ele>
        <time>2016-02-15T11:16:03Z</time>
      </trkpt>
      <trkpt lat="44.30511" lon="5.89313">
        <ele>585.5800781</ele>
        <time>2016-02-15T11:16:19Z</time>
      </trkpt>
      <trkpt lat="44.30509" lon="5.89313">
        <ele>585.0996094</ele>
        <time>2016-02-15T11:16:50Z</time>
      </trkpt>
      <trkpt lat="44.3047" lon="5.89329">
        <ele>586.060791</ele>
        <time>2016-02-15T11:17:04Z</time>
      </trkpt>
      <trkpt lat="44.30419" lon="5.89347">
        <ele>586.060791</ele>
        <time>2016-02-15T11:17:17Z</time>
      </trkpt>
      <trkpt lat="44.30342" lon="5.89373">
        <ele>583.6574707</ele>
        <time>2016-02-15T11:17:31Z</time>
      </trkpt>
      <trkpt lat="44.30238" lon="5.89404">
        <ele>581.7348633</ele>
        <time>2016-02-15T11:17:47Z</time>
      </trkpt>
      <trkpt lat="44.30177" lon="5.89425">
        <ele>581.7348633</ele>
        <time>2016-02-15T11:17:58Z</time>
      </trkpt>
      <trkpt lat="44.3006" lon="5.89464">
        <ele>582.2155762</ele>
        <time>2016-02-15T11:18:21Z</time>
      </trkpt>
      <trkpt lat="44.29944" lon="5.89497">
        <ele>584.1381836</ele>
        <time>2016-02-15T11:18:45Z</time>
      </trkpt>
      <trkpt lat="44.29857" lon="5.89527">
        <ele>584.1381836</ele>
        <time>2016-02-15T11:19:05Z</time>
      </trkpt>
      <trkpt lat="44.29848" lon="5.8953">
        <ele>584.6188965</ele>
        <time>2016-02-15T11:19:07Z</time>
      </trkpt>
      <trkpt lat="44.29805" lon="5.89532">
        <ele>585.0996094</ele>
        <time>2016-02-15T11:19:17Z</time>
      </trkpt>
      <trkpt lat="44.29724" lon="5.89531">
        <ele>583.1767578</ele>
        <time>2016-02-15T11:19:31Z</time>
      </trkpt>
      <trkpt lat="44.29655" lon="5.89526">
        <ele>582.6962891</ele>
        <time>2016-02-15T11:19:43Z</time>
      </trkpt>
      <trkpt lat="44.29625" lon="5.89524">
        <ele>584.1381836</ele>
        <time>2016-02-15T11:19:53Z</time>
      </trkpt>
      <trkpt lat="44.29583" lon="5.89531">
        <ele>586.060791</ele>
        <time>2016-02-15T11:20:09Z</time>
      </trkpt>
      <trkpt lat="44.29537" lon="5.89553">
        <ele>589.4255371</ele>
        <time>2016-02-15T11:20:30Z</time>
      </trkpt>
      <trkpt lat="44.29531" lon="5.89554">
        <ele>589.4255371</ele>
        <time>2016-02-15T11:20:34Z</time>
      </trkpt>
      <trkpt lat="44.29497" lon="5.89568">
        <ele>591.3481445</ele>
        <time>2016-02-15T11:20:51Z</time>
      </trkpt>
      <trkpt lat="44.29456" lon="5.89579">
        <ele>593.270752</ele>
        <time>2016-02-15T11:21:08Z</time>
      </trkpt>
      <trkpt lat="44.29396" lon="5.89587">
        <ele>592.7902832</ele>
        <time>2016-02-15T11:21:25Z</time>
      </trkpt>
      <trkpt lat="44.29351" lon="5.89593">
        <ele>592.3095703</ele>
        <time>2016-02-15T11:21:37Z</time>
      </trkpt>
      <trkpt lat="44.2932" lon="5.89598">
        <ele>592.7902832</ele>
        <time>2016-02-15T11:21:47Z</time>
      </trkpt>
      <trkpt lat="44.29297" lon="5.89604">
        <ele>592.7902832</ele>
        <time>2016-02-15T11:21:53Z</time>
      </trkpt>
      <trkpt lat="44.29266" lon="5.8963">
        <ele>593.270752</ele>
        <time>2016-02-15T11:22:03Z</time>
      </trkpt>
      <trkpt lat="44.29257" lon="5.89638">
        <ele>592.7902832</ele>
        <time>2016-02-15T11:22:07Z</time>
      </trkpt>
      <trkpt lat="44.29254" lon="5.89652">
        <ele>592.3095703</ele>
        <time>2016-02-15T11:22:13Z</time>
      </trkpt>
      <trkpt lat="44.2924" lon="5.8968">
        <ele>591.3481445</ele>
        <time>2016-02-15T11:22:18Z</time>
      </trkpt>
      <trkpt lat="44.29224" lon="5.89697">
        <ele>590.8674316</ele>
        <time>2016-02-15T11:22:21Z</time>
      </trkpt>
      <trkpt lat="44.2922" lon="5.89712">
        <ele>592.3095703</ele>
        <time>2016-02-15T11:22:25Z</time>
      </trkpt>
      <trkpt lat="44.29217" lon="5.89718">
        <ele>590.3869629</ele>
        <time>2016-02-15T11:22:26Z</time>
      </trkpt>
      <trkpt lat="44.2918" lon="5.89757">
        <ele>588.9450684</ele>
        <time>2016-02-15T11:22:32Z</time>
      </trkpt>
      <trkpt lat="44.29172" lon="5.8976">
        <ele>587.0219727</ele>
        <time>2016-02-15T11:22:33Z</time>
      </trkpt>
      <trkpt lat="44.29154" lon="5.89763">
        <ele>585.5800781</ele>
        <time>2016-02-15T11:22:35Z</time>
      </trkpt>
      <trkpt lat="44.29064" lon="5.89759">
        <ele>581.7348633</ele>
        <time>2016-02-15T11:22:44Z</time>
      </trkpt>
      <trkpt lat="44.29045" lon="5.89757">
        <ele>580.7736816</ele>
        <time>2016-02-15T11:22:46Z</time>
      </trkpt>
      <trkpt lat="44.28984" lon="5.89754">
        <ele>577.8896484</ele>
        <time>2016-02-15T11:22:52Z</time>
      </trkpt>
      <trkpt lat="44.28975" lon="5.89757">
        <ele>577.8896484</ele>
        <time>2016-02-15T11:22:53Z</time>
      </trkpt>
      <trkpt lat="44.28892" lon="5.89772">
        <ele>577.8896484</ele>
        <time>2016-02-15T11:23:05Z</time>
      </trkpt>
      <trkpt lat="44.2885" lon="5.8978">
        <ele>578.3703613</ele>
        <time>2016-02-15T11:23:13Z</time>
      </trkpt>
      <trkpt lat="44.28831" lon="5.8978">
        <ele>578.3703613</ele>
        <time>2016-02-15T11:23:17Z</time>
      </trkpt>
      <trkpt lat="44.28781" lon="5.89794">
        <ele>579.331543</ele>
        <time>2016-02-15T11:23:28Z</time>
      </trkpt>
      <trkpt lat="44.2871" lon="5.89794">
        <ele>578.8510742</ele>
        <time>2016-02-15T11:23:47Z</time>
      </trkpt>
      <trkpt lat="44.28706" lon="5.89793">
        <ele>579.331543</ele>
        <time>2016-02-15T11:23:57Z</time>
      </trkpt>
      <trkpt lat="44.28705" lon="5.89792">
        <ele>578.8510742</ele>
        <time>2016-02-15T11:24:15Z</time>
      </trkpt>
      <trkpt lat="44.28667" lon="5.89802">
        <ele>577.8896484</ele>
        <time>2016-02-15T11:24:29Z</time>
      </trkpt>
      <trkpt lat="44.28584" lon="5.89817">
        <ele>575.0058594</ele>
        <time>2016-02-15T11:24:43Z</time>
      </trkpt>
      <trkpt lat="44.28562" lon="5.89819">
        <ele>573.5639648</ele>
        <time>2016-02-15T11:24:46Z</time>
      </trkpt>
      <trkpt lat="44.28521" lon="5.89825">
        <ele>570.6796875</ele>
        <time>2016-02-15T11:24:51Z</time>
      </trkpt>
      <trkpt lat="44.28465" lon="5.89836">
        <ele>567.3151855</ele>
        <time>2016-02-15T11:24:57Z</time>
      </trkpt>
      <trkpt lat="44.28455" lon="5.89838">
        <ele>567.3151855</ele>
        <time>2016-02-15T11:24:58Z</time>
      </trkpt>
      <trkpt lat="44.28424" lon="5.89843">
        <ele>563.9504395</ele>
        <time>2016-02-15T11:25:01Z</time>
      </trkpt>
      <trkpt lat="44.28312" lon="5.89821">
        <ele>561.0666504</ele>
        <time>2016-02-15T11:25:13Z</time>
      </trkpt>
      <trkpt lat="44.28304" lon="5.8982">
        <ele>561.0666504</ele>
        <time>2016-02-15T11:25:14Z</time>
      </trkpt>
      <trkpt lat="44.2826" lon="5.89805">
        <ele>560.1052246</ele>
        <time>2016-02-15T11:25:20Z</time>
      </trkpt>
      <trkpt lat="44.28247" lon="5.89804">
        <ele>559.144043</ele>
        <time>2016-02-15T11:25:22Z</time>
      </trkpt>
      <trkpt lat="44.28234" lon="5.89791">
        <ele>559.6247559</ele>
        <time>2016-02-15T11:25:26Z</time>
      </trkpt>
      <trkpt lat="44.28234" lon="5.89786">
        <ele>560.5859375</ele>
        <time>2016-02-15T11:25:41Z</time>
      </trkpt>
      <trkpt lat="44.28235" lon="5.89784">
        <ele>560.5859375</ele>
        <time>2016-02-15T11:25:54Z</time>
      </trkpt>
      <trkpt lat="44.2824" lon="5.89777">
        <ele>560.1052246</ele>
        <time>2016-02-15T11:25:59Z</time>
      </trkpt>
      <trkpt lat="44.28277" lon="5.89734">
        <ele>561.5473633</ele>
        <time>2016-02-15T11:26:15Z</time>
      </trkpt>
      <trkpt lat="44.2829" lon="5.89682">
        <ele>562.5085449</ele>
        <time>2016-02-15T11:26:29Z</time>
      </trkpt>
      <trkpt lat="44.28283" lon="5.8964">
        <ele>563.9504395</ele>
        <time>2016-02-15T11:26:42Z</time>
      </trkpt>
      <trkpt lat="44.28288" lon="5.89585">
        <ele>566.3537598</ele>
        <time>2016-02-15T11:27:00Z</time>
      </trkpt>
      <trkpt lat="44.28318" lon="5.89522">
        <ele>568.7570801</ele>
        <time>2016-02-15T11:27:22Z</time>
      </trkpt>
      <trkpt lat="44.28338" lon="5.89478">
        <ele>569.7185059</ele>
        <time>2016-02-15T11:27:38Z</time>
      </trkpt>
      <trkpt lat="44.28367" lon="5.89414">
        <ele>570.1989746</ele>
        <time>2016-02-15T11:27:59Z</time>
      </trkpt>
      <trkpt lat="44.28394" lon="5.89344">
        <ele>569.237793</ele>
        <time>2016-02-15T11:28:17Z</time>
      </trkpt>
      <trkpt lat="44.28413" lon="5.89264">
        <ele>568.7570801</ele>
        <time>2016-02-15T11:28:34Z</time>
      </trkpt>
      <trkpt lat="44.28409" lon="5.89241">
        <ele>568.7570801</ele>
        <time>2016-02-15T11:28:44Z</time>
      </trkpt>
      <trkpt lat="44.28392" lon="5.89218">
        <ele>569.7185059</ele>
        <time>2016-02-15T11:28:57Z</time>
      </trkpt>
      <trkpt lat="44.28392" lon="5.89217">
        <ele>569.7185059</ele>
        <time>2016-02-15T11:29:50Z</time>
      </trkpt>
      <trkpt lat="44.28354" lon="5.89196">
        <ele>570.6796875</ele>
        <time>2016-02-15T11:30:05Z</time>
      </trkpt>
      <trkpt lat="44.28302" lon="5.89161">
        <ele>570.1989746</ele>
        <time>2016-02-15T11:30:21Z</time>
      </trkpt>
      <trkpt lat="44.28258" lon="5.89114">
        <ele>568.2763672</ele>
        <time>2016-02-15T11:30:31Z</time>
      </trkpt>
      <trkpt lat="44.28241" lon="5.8907">
        <ele>566.3537598</ele>
        <time>2016-02-15T11:30:39Z</time>
      </trkpt>
      <trkpt lat="44.28226" lon="5.89069">
        <ele>565.3925781</ele>
        <time>2016-02-15T11:30:43Z</time>
      </trkpt>
      <trkpt lat="44.282" lon="5.89082">
        <ele>565.3925781</ele>
        <time>2016-02-15T11:30:49Z</time>
      </trkpt>
      <trkpt lat="44.28173" lon="5.89086">
        <ele>564.4311523</ele>
        <time>2016-02-15T11:30:55Z</time>
      </trkpt>
      <trkpt lat="44.28157" lon="5.8903">
        <ele>562.0280762</ele>
        <time>2016-02-15T11:31:03Z</time>
      </trkpt>
      <trkpt lat="44.28145" lon="5.88995">
        <ele>560.5859375</ele>
        <time>2016-02-15T11:31:09Z</time>
      </trkpt>
      <trkpt lat="44.28122" lon="5.88999">
        <ele>560.5859375</ele>
        <time>2016-02-15T11:31:14Z</time>
      </trkpt>
      <trkpt lat="44.28077" lon="5.89029">
        <ele>559.144043</ele>
        <time>2016-02-15T11:31:23Z</time>
      </trkpt>
      <trkpt lat="44.28048" lon="5.89035">
        <ele>558.1828613</ele>
        <time>2016-02-15T11:31:28Z</time>
      </trkpt>
      <trkpt lat="44.27948" lon="5.89024">
        <ele>556.2600098</ele>
        <time>2016-02-15T11:31:45Z</time>
      </trkpt>
      <trkpt lat="44.2793" lon="5.89028">
        <ele>555.7792969</ele>
        <time>2016-02-15T11:31:48Z</time>
      </trkpt>
      <trkpt lat="44.27917" lon="5.89028">
        <ele>555.298584</ele>
        <time>2016-02-15T11:31:50Z</time>
      </trkpt>
      <trkpt lat="44.27902" lon="5.89005">
        <ele>554.8178711</ele>
        <time>2016-02-15T11:31:54Z</time>
      </trkpt>
      <trkpt lat="44.27897" lon="5.88984">
        <ele>555.298584</ele>
        <time>2016-02-15T11:31:57Z</time>
      </trkpt>
      <trkpt lat="44.27884" lon="5.88964">
        <ele>554.3374023</ele>
        <time>2016-02-15T11:32:01Z</time>
      </trkpt>
      <trkpt lat="44.27876" lon="5.88958">
        <ele>554.3374023</ele>
        <time>2016-02-15T11:32:03Z</time>
      </trkpt>
      <trkpt lat="44.27846" lon="5.88917">
        <ele>553.8566895</ele>
        <time>2016-02-15T11:32:11Z</time>
      </trkpt>
      <trkpt lat="44.27811" lon="5.88852">
        <ele>552.8952637</ele>
        <time>2016-02-15T11:32:21Z</time>
      </trkpt>
      <trkpt lat="44.27786" lon="5.8883">
        <ele>551.4533691</ele>
        <time>2016-02-15T11:32:26Z</time>
      </trkpt>
      <trkpt lat="44.27728" lon="5.88808">
        <ele>550.9726563</ele>
        <time>2016-02-15T11:32:36Z</time>
      </trkpt>
      <trkpt lat="44.27701" lon="5.88782">
        <ele>550.4921875</ele>
        <time>2016-02-15T11:32:42Z</time>
      </trkpt>
      <trkpt lat="44.27675" lon="5.88765">
        <ele>550.0114746</ele>
        <time>2016-02-15T11:32:47Z</time>
      </trkpt>
      <trkpt lat="44.27623" lon="5.88732">
        <ele>550.9726563</ele>
        <time>2016-02-15T11:32:59Z</time>
      </trkpt>
      <trkpt lat="44.27587" lon="5.88659">
        <ele>549.5307617</ele>
        <time>2016-02-15T11:33:12Z</time>
      </trkpt>
      <trkpt lat="44.27585" lon="5.88657">
        <ele>549.5307617</ele>
        <time>2016-02-15T11:33:21Z</time>
      </trkpt>
      <trkpt lat="44.27585" lon="5.8866">
        <ele>549.5307617</ele>
        <time>2016-02-15T11:33:45Z</time>
      </trkpt>
      <trkpt lat="44.276" lon="5.88699">
        <ele>550.0114746</ele>
        <time>2016-02-15T11:33:56Z</time>
      </trkpt>
      <trkpt lat="44.27623" lon="5.88751">
        <ele>550.9726563</ele>
        <time>2016-02-15T11:34:09Z</time>
      </trkpt>
      <trkpt lat="44.2763" lon="5.88757">
        <ele>550.9726563</ele>
        <time>2016-02-15T11:34:11Z</time>
      </trkpt>
      <trkpt lat="44.27676" lon="5.8877">
        <ele>550.0114746</ele>
        <time>2016-02-15T11:34:21Z</time>
      </trkpt>
      <trkpt lat="44.27729" lon="5.88811">
        <ele>550.9726563</ele>
        <time>2016-02-15T11:34:37Z</time>
      </trkpt>
      <trkpt lat="44.2779" lon="5.88832">
        <ele>550.9726563</ele>
        <time>2016-02-15T11:34:53Z</time>
      </trkpt>
      <trkpt lat="44.27826" lon="5.88874">
        <ele>551.4533691</ele>
        <time>2016-02-15T11:35:06Z</time>
      </trkpt>
      <trkpt lat="44.2786" lon="5.88931">
        <ele>552.8952637</ele>
        <time>2016-02-15T11:35:21Z</time>
      </trkpt>
      <trkpt lat="44.27899" lon="5.88972">
        <ele>553.3759766</ele>
        <time>2016-02-15T11:35:36Z</time>
      </trkpt>
      <trkpt lat="44.27913" lon="5.89026">
        <ele>553.3759766</ele>
        <time>2016-02-15T11:35:49Z</time>
      </trkpt>
      <trkpt lat="44.27915" lon="5.89026">
        <ele>553.3759766</ele>
        <time>2016-02-15T11:36:02Z</time>
      </trkpt>
      <trkpt lat="44.27949" lon="5.8902">
        <ele>554.3374023</ele>
        <time>2016-02-15T11:36:15Z</time>
      </trkpt>
      <trkpt lat="44.27974" lon="5.89019">
        <ele>555.298584</ele>
        <time>2016-02-15T11:36:23Z</time>
      </trkpt>
      <trkpt lat="44.28019" lon="5.89023">
        <ele>557.2214355</ele>
        <time>2016-02-15T11:36:39Z</time>
      </trkpt>
      <trkpt lat="44.28061" lon="5.8903">
        <ele>556.2600098</ele>
        <time>2016-02-15T11:36:53Z</time>
      </trkpt>
      <trkpt lat="44.28109" lon="5.89006">
        <ele>557.7021484</ele>
        <time>2016-02-15T11:37:10Z</time>
      </trkpt>
      <trkpt lat="44.28149" lon="5.88999">
        <ele>558.6633301</ele>
        <time>2016-02-15T11:37:25Z</time>
      </trkpt>
      <trkpt lat="44.28158" lon="5.89027">
        <ele>559.144043</ele>
        <time>2016-02-15T11:37:32Z</time>
      </trkpt>
      <trkpt lat="44.28162" lon="5.89053">
        <ele>560.5859375</ele>
        <time>2016-02-15T11:37:39Z</time>
      </trkpt>
      <trkpt lat="44.28173" lon="5.89084">
        <ele>562.5085449</ele>
        <time>2016-02-15T11:37:51Z</time>
      </trkpt>
      <trkpt lat="44.28205" lon="5.89077">
        <ele>563.9504395</ele>
        <time>2016-02-15T11:38:05Z</time>
      </trkpt>
      <trkpt lat="44.28237" lon="5.89062">
        <ele>563.9504395</ele>
        <time>2016-02-15T11:38:19Z</time>
      </trkpt>
      <trkpt lat="44.28239" lon="5.89056">
        <ele>564.4311523</ele>
        <time>2016-02-15T11:38:40Z</time>
      </trkpt>
      <trkpt lat="44.2823" lon="5.89009">
        <ele>562.5085449</ele>
        <time>2016-02-15T11:38:52Z</time>
      </trkpt>
      <trkpt lat="44.28225" lon="5.88999">
        <ele>562.5085449</ele>
        <time>2016-02-15T11:38:54Z</time>
      </trkpt>
      <trkpt lat="44.28192" lon="5.88943">
        <ele>560.5859375</ele>
        <time>2016-02-15T11:39:05Z</time>
      </trkpt>
      <trkpt lat="44.28185" lon="5.88926">
        <ele>560.1052246</ele>
        <time>2016-02-15T11:39:08Z</time>
      </trkpt>
      <trkpt lat="44.28175" lon="5.88906">
        <ele>560.5859375</ele>
        <time>2016-02-15T11:39:12Z</time>
      </trkpt>
      <trkpt lat="44.28161" lon="5.88869">
        <ele>561.5473633</ele>
        <time>2016-02-15T11:39:19Z</time>
      </trkpt>
      <trkpt lat="44.28158" lon="5.88804">
        <ele>559.6247559</ele>
        <time>2016-02-15T11:39:32Z</time>
      </trkpt>
      <trkpt lat="44.28159" lon="5.88791">
        <ele>559.6247559</ele>
        <time>2016-02-15T11:39:35Z</time>
      </trkpt>
      <trkpt lat="44.28131" lon="5.88743">
        <ele>559.6247559</ele>
        <time>2016-02-15T11:39:50Z</time>
      </trkpt>
      <trkpt lat="44.281" lon="5.88701">
        <ele>560.1052246</ele>
        <time>2016-02-15T11:40:05Z</time>
      </trkpt>
      <trkpt lat="44.28096" lon="5.88659">
        <ele>563.4699707</ele>
        <time>2016-02-15T11:40:20Z</time>
      </trkpt>
      <trkpt lat="44.28094" lon="5.88652">
        <ele>563.9504395</ele>
        <time>2016-02-15T11:40:23Z</time>
      </trkpt>
      <trkpt lat="44.28087" lon="5.88637">
        <ele>565.873291</ele>
        <time>2016-02-15T11:40:30Z</time>
      </trkpt>
      <trkpt lat="44.28083" lon="5.88632">
        <ele>565.873291</ele>
        <time>2016-02-15T11:40:33Z</time>
      </trkpt>
      <trkpt lat="44.2806" lon="5.8861">
        <ele>567.7956543</ele>
        <time>2016-02-15T11:40:48Z</time>
      </trkpt>
      <trkpt lat="44.28031" lon="5.88586">
        <ele>570.6796875</ele>
        <time>2016-02-15T11:41:07Z</time>
      </trkpt>
      <trkpt lat="44.27999" lon="5.88567">
        <ele>573.5639648</ele>
        <time>2016-02-15T11:41:27Z</time>
      </trkpt>
      <trkpt lat="44.27969" lon="5.88558">
        <ele>576.4477539</ele>
        <time>2016-02-15T11:41:46Z</time>
      </trkpt>
      <trkpt lat="44.27967" lon="5.88556">
        <ele>576.4477539</ele>
        <time>2016-02-15T11:41:47Z</time>
      </trkpt>
      <trkpt lat="44.27962" lon="5.88542">
        <ele>576.4477539</ele>
        <time>2016-02-15T11:41:53Z</time>
      </trkpt>
      <trkpt lat="44.27965" lon="5.88497">
        <ele>576.9284668</ele>
        <time>2016-02-15T11:42:08Z</time>
      </trkpt>
      <trkpt lat="44.27971" lon="5.88453">
        <ele>576.9284668</ele>
        <time>2016-02-15T11:42:22Z</time>
      </trkpt>
      <trkpt lat="44.27975" lon="5.88416">
        <ele>579.8122559</ele>
        <time>2016-02-15T11:42:36Z</time>
      </trkpt>
      <trkpt lat="44.27976" lon="5.88405">
        <ele>580.7736816</ele>
        <time>2016-02-15T11:42:41Z</time>
      </trkpt>
      <trkpt lat="44.27975" lon="5.88395">
        <ele>580.7736816</ele>
        <time>2016-02-15T11:42:45Z</time>
      </trkpt>
      <trkpt lat="44.27973" lon="5.8838">
        <ele>581.7348633</ele>
        <time>2016-02-15T11:42:51Z</time>
      </trkpt>
      <trkpt lat="44.27958" lon="5.88354">
        <ele>585.0996094</ele>
        <time>2016-02-15T11:43:05Z</time>
      </trkpt>
      <trkpt lat="44.27958" lon="5.8835">
        <ele>585.5800781</ele>
        <time>2016-02-15T11:43:07Z</time>
      </trkpt>
      <trkpt lat="44.27962" lon="5.88327">
        <ele>587.5026855</ele>
        <time>2016-02-15T11:43:19Z</time>
      </trkpt>
      <trkpt lat="44.27968" lon="5.8831">
        <ele>589.4255371</ele>
        <time>2016-02-15T11:43:28Z</time>
      </trkpt>
      <trkpt lat="44.27965" lon="5.88301">
        <ele>590.3869629</ele>
        <time>2016-02-15T11:43:34Z</time>
      </trkpt>
      <trkpt lat="44.27961" lon="5.88296">
        <ele>591.3481445</ele>
        <time>2016-02-15T11:43:37Z</time>
      </trkpt>
      <trkpt lat="44.27959" lon="5.88291">
        <ele>592.7902832</ele>
        <time>2016-02-15T11:43:41Z</time>
      </trkpt>
      <trkpt lat="44.2796" lon="5.88285">
        <ele>593.270752</ele>
        <time>2016-02-15T11:43:53Z</time>
      </trkpt>
      <trkpt lat="44.27965" lon="5.88269">
        <ele>595.1933594</ele>
        <time>2016-02-15T11:44:08Z</time>
      </trkpt>
      <trkpt lat="44.27974" lon="5.88245">
        <ele>598.0773926</ele>
        <time>2016-02-15T11:44:29Z</time>
      </trkpt>
      <trkpt lat="44.27979" lon="5.88229">
        <ele>600.9611816</ele>
        <time>2016-02-15T11:44:47Z</time>
      </trkpt>
      <trkpt lat="44.27979" lon="5.88209">
        <ele>602.8837891</ele>
        <time>2016-02-15T11:45:04Z</time>
      </trkpt>
      <trkpt lat="44.27978" lon="5.88188">
        <ele>606.2485352</ele>
        <time>2016-02-15T11:45:24Z</time>
      </trkpt>
      <trkpt lat="44.27974" lon="5.88171">
        <ele>609.6132813</ele>
        <time>2016-02-15T11:45:42Z</time>
      </trkpt>
      <trkpt lat="44.27965" lon="5.88153">
        <ele>611.5358887</ele>
        <time>2016-02-15T11:46:04Z</time>
      </trkpt>
      <trkpt lat="44.27953" lon="5.88134">
        <ele>614.4196777</ele>
        <time>2016-02-15T11:46:27Z</time>
      </trkpt>
      <trkpt lat="44.27952" lon="5.88132">
        <ele>615.3811035</ele>
        <time>2016-02-15T11:46:29Z</time>
      </trkpt>
      <trkpt lat="44.27944" lon="5.88125">
        <ele>616.822998</ele>
        <time>2016-02-15T11:46:39Z</time>
      </trkpt>
      <trkpt lat="44.27937" lon="5.88119">
        <ele>617.7841797</ele>
        <time>2016-02-15T11:46:47Z</time>
      </trkpt>
      <trkpt lat="44.27934" lon="5.88114">
        <ele>617.7841797</ele>
        <time>2016-02-15T11:46:52Z</time>
      </trkpt>
      <trkpt lat="44.27928" lon="5.88102">
        <ele>619.7070313</ele>
        <time>2016-02-15T11:47:03Z</time>
      </trkpt>
      <trkpt lat="44.27922" lon="5.88084">
        <ele>621.1491699</ele>
        <time>2016-02-15T11:47:19Z</time>
      </trkpt>
      <trkpt lat="44.27917" lon="5.88075">
        <ele>622.1103516</ele>
        <time>2016-02-15T11:47:27Z</time>
      </trkpt>
      <trkpt lat="44.27911" lon="5.88057">
        <ele>623.5524902</ele>
        <time>2016-02-15T11:47:44Z</time>
      </trkpt>
      <trkpt lat="44.27904" lon="5.88041">
        <ele>626.4362793</ele>
        <time>2016-02-15T11:48:00Z</time>
      </trkpt>
      <trkpt lat="44.27895" lon="5.88028">
        <ele>628.8395996</ele>
        <time>2016-02-15T11:48:17Z</time>
      </trkpt>
      <trkpt lat="44.27884" lon="5.88022">
        <ele>631.2429199</ele>
        <time>2016-02-15T11:48:32Z</time>
      </trkpt>
      <trkpt lat="44.27879" lon="5.88011">
        <ele>631.7233887</ele>
        <time>2016-02-15T11:48:44Z</time>
      </trkpt>
      <trkpt lat="44.27874" lon="5.87989">
        <ele>634.6074219</ele>
        <time>2016-02-15T11:49:03Z</time>
      </trkpt>
      <trkpt lat="44.27872" lon="5.8798">
        <ele>636.5302734</ele>
        <time>2016-02-15T11:49:27Z</time>
      </trkpt>
      <trkpt lat="44.27865" lon="5.87965">
        <ele>637.0107422</ele>
        <time>2016-02-15T11:50:09Z</time>
      </trkpt>
      <trkpt lat="44.27864" lon="5.87961">
        <ele>637.0107422</ele>
        <time>2016-02-15T11:50:13Z</time>
      </trkpt>
      <trkpt lat="44.27856" lon="5.8794">
        <ele>637.972168</ele>
        <time>2016-02-15T11:50:21Z</time>
      </trkpt>
      <trkpt lat="44.27852" lon="5.87935">
        <ele>638.4528809</ele>
        <time>2016-02-15T11:50:24Z</time>
      </trkpt>
      <trkpt lat="44.27839" lon="5.87899">
        <ele>639.4140625</ele>
        <time>2016-02-15T11:50:38Z</time>
      </trkpt>
      <trkpt lat="44.27825" lon="5.87857">
        <ele>639.8947754</ele>
        <time>2016-02-15T11:50:52Z</time>
      </trkpt>
      <trkpt lat="44.27817" lon="5.87813">
        <ele>639.4140625</ele>
        <time>2016-02-15T11:51:05Z</time>
      </trkpt>
      <trkpt lat="44.27804" lon="5.87765">
        <ele>640.3754883</ele>
        <time>2016-02-15T11:51:18Z</time>
      </trkpt>
      <trkpt lat="44.27796" lon="5.87725">
        <ele>642.2980957</ele>
        <time>2016-02-15T11:51:30Z</time>
      </trkpt>
      <trkpt lat="44.2779" lon="5.87681">
        <ele>644.2207031</ele>
        <time>2016-02-15T11:51:44Z</time>
      </trkpt>
      <trkpt lat="44.27795" lon="5.87602">
        <ele>645.1818848</ele>
        <time>2016-02-15T11:52:05Z</time>
      </trkpt>
      <trkpt lat="44.278" lon="5.87531">
        <ele>646.1433105</ele>
        <time>2016-02-15T11:52:24Z</time>
      </trkpt>
      <trkpt lat="44.27802" lon="5.87479">
        <ele>648.065918</ele>
        <time>2016-02-15T11:52:40Z</time>
      </trkpt>
      <trkpt lat="44.27803" lon="5.87476">
        <ele>649.9885254</ele>
        <time>2016-02-15T11:52:48Z</time>
      </trkpt>
      <trkpt lat="44.27802" lon="5.87476">
        <ele>649.5078125</ele>
        <time>2016-02-15T11:52:59Z</time>
      </trkpt>
      <trkpt lat="44.27787" lon="5.87444">
        <ele>649.5078125</ele>
        <time>2016-02-15T11:53:12Z</time>
      </trkpt>
      <trkpt lat="44.27774" lon="5.87402">
        <ele>651.9111328</ele>
        <time>2016-02-15T11:53:26Z</time>
      </trkpt>
      <trkpt lat="44.27756" lon="5.87341">
        <ele>653.3532715</ele>
        <time>2016-02-15T11:53:46Z</time>
      </trkpt>
      <trkpt lat="44.27739" lon="5.8726">
        <ele>654.3146973</ele>
        <time>2016-02-15T11:54:08Z</time>
      </trkpt>
      <trkpt lat="44.27725" lon="5.87196">
        <ele>655.2758789</ele>
        <time>2016-02-15T11:54:27Z</time>
      </trkpt>
      <trkpt lat="44.27723" lon="5.87175">
        <ele>652.3918457</ele>
        <time>2016-02-15T11:54:31Z</time>
      </trkpt>
      <trkpt lat="44.27721" lon="5.87164">
        <ele>650.949707</ele>
        <time>2016-02-15T11:54:33Z</time>
      </trkpt>
      <trkpt lat="44.2772" lon="5.87146">
        <ele>649.5078125</ele>
        <time>2016-02-15T11:54:37Z</time>
      </trkpt>
      <trkpt lat="44.27721" lon="5.87115">
        <ele>648.065918</ele>
        <time>2016-02-15T11:54:42Z</time>
      </trkpt>
      <trkpt lat="44.2772" lon="5.87068">
        <ele>644.7011719</ele>
        <time>2016-02-15T11:54:48Z</time>
      </trkpt>
      <trkpt lat="44.27721" lon="5.8706">
        <ele>644.7011719</ele>
        <time>2016-02-15T11:54:49Z</time>
      </trkpt>
      <trkpt lat="44.27719" lon="5.87021">
        <ele>643.2592773</ele>
        <time>2016-02-15T11:54:55Z</time>
      </trkpt>
      <trkpt lat="44.27708" lon="5.86952">
        <ele>641.8173828</ele>
        <time>2016-02-15T11:55:09Z</time>
      </trkpt>
      <trkpt lat="44.27702" lon="5.86911">
        <ele>641.8173828</ele>
        <time>2016-02-15T11:55:18Z</time>
      </trkpt>
      <trkpt lat="44.27706" lon="5.869">
        <ele>641.8173828</ele>
        <time>2016-02-15T11:55:27Z</time>
      </trkpt>
      <trkpt lat="44.27705" lon="5.86897">
        <ele>641.8173828</ele>
        <time>2016-02-15T11:55:44Z</time>
      </trkpt>
      <trkpt lat="44.27692" lon="5.86903">
        <ele>641.3366699</ele>
        <time>2016-02-15T11:55:51Z</time>
      </trkpt>
      <trkpt lat="44.27694" lon="5.86904">
        <ele>640.855957</ele>
        <time>2016-02-15T11:55:56Z</time>
      </trkpt>
      <trkpt lat="44.27716" lon="5.86893">
        <ele>642.7788086</ele>
        <time>2016-02-15T11:56:07Z</time>
      </trkpt>
      <trkpt lat="44.2771" lon="5.86844">
        <ele>645.6625977</ele>
        <time>2016-02-15T11:56:21Z</time>
      </trkpt>
      <trkpt lat="44.27707" lon="5.86828">
        <ele>645.1818848</ele>
        <time>2016-02-15T11:56:25Z</time>
      </trkpt>
      <trkpt lat="44.27689" lon="5.86802">
        <ele>643.7399902</ele>
        <time>2016-02-15T11:56:37Z</time>
      </trkpt>
      <trkpt lat="44.27675" lon="5.8677">
        <ele>642.7788086</ele>
        <time>2016-02-15T11:56:56Z</time>
      </trkpt>
      <trkpt lat="44.27659" lon="5.86733">
        <ele>641.3366699</ele>
        <time>2016-02-15T11:57:01Z</time>
      </trkpt>
      <trkpt lat="44.27639" lon="5.867">
        <ele>638.9335938</ele>
        <time>2016-02-15T11:57:05Z</time>
      </trkpt>
      <trkpt lat="44.27624" lon="5.86675">
        <ele>636.5302734</ele>
        <time>2016-02-15T11:57:08Z</time>
      </trkpt>
      <trkpt lat="44.2762" lon="5.86667">
        <ele>636.0495605</ele>
        <time>2016-02-15T11:57:09Z</time>
      </trkpt>
      <trkpt lat="44.27612" lon="5.86647">
        <ele>634.6074219</ele>
        <time>2016-02-15T11:57:11Z</time>
      </trkpt>
      <trkpt lat="44.27599" lon="5.86604">
        <ele>631.7233887</ele>
        <time>2016-02-15T11:57:15Z</time>
      </trkpt>
      <trkpt lat="44.27592" lon="5.86587">
        <ele>629.3200684</ele>
        <time>2016-02-15T11:57:17Z</time>
      </trkpt>
      <trkpt lat="44.27586" lon="5.86571">
        <ele>627.8781738</ele>
        <time>2016-02-15T11:57:19Z</time>
      </trkpt>
      <trkpt lat="44.27575" lon="5.86546">
        <ele>626.4362793</ele>
        <time>2016-02-15T11:57:22Z</time>
      </trkpt>
      <trkpt lat="44.27569" lon="5.86531">
        <ele>624.9943848</ele>
        <time>2016-02-15T11:57:24Z</time>
      </trkpt>
      <trkpt lat="44.27551" lon="5.86495">
        <ele>621.6296387</ele>
        <time>2016-02-15T11:57:30Z</time>
      </trkpt>
      <trkpt lat="44.27548" lon="5.86458">
        <ele>619.7070313</ele>
        <time>2016-02-15T11:57:35Z</time>
      </trkpt>
      <trkpt lat="44.2755" lon="5.8645">
        <ele>618.7456055</ele>
        <time>2016-02-15T11:57:36Z</time>
      </trkpt>
      <trkpt lat="44.27553" lon="5.86432">
        <ele>619.2263184</ele>
        <time>2016-02-15T11:57:38Z</time>
      </trkpt>
      <trkpt lat="44.27553" lon="5.86415">
        <ele>617.7841797</ele>
        <time>2016-02-15T11:57:40Z</time>
      </trkpt>
      <trkpt lat="44.27551" lon="5.86397">
        <ele>617.7841797</ele>
        <time>2016-02-15T11:57:42Z</time>
      </trkpt>
      <trkpt lat="44.27543" lon="5.86369">
        <ele>615.3811035</ele>
        <time>2016-02-15T11:57:45Z</time>
      </trkpt>
      <trkpt lat="44.27537" lon="5.8635">
        <ele>612.9777832</ele>
        <time>2016-02-15T11:57:47Z</time>
      </trkpt>
      <trkpt lat="44.27533" lon="5.86342">
        <ele>612.4970703</ele>
        <time>2016-02-15T11:57:48Z</time>
      </trkpt>
      <trkpt lat="44.27521" lon="5.8631">
        <ele>610.09375</ele>
        <time>2016-02-15T11:57:52Z</time>
      </trkpt>
      <trkpt lat="44.27518" lon="5.86302">
        <ele>608.6518555</ele>
        <time>2016-02-15T11:57:53Z</time>
      </trkpt>
      <trkpt lat="44.27514" lon="5.86268">
        <ele>607.2099609</ele>
        <time>2016-02-15T11:57:56Z</time>
      </trkpt>
      <trkpt lat="44.27515" lon="5.86243">
        <ele>603.8452148</ele>
        <time>2016-02-15T11:57:58Z</time>
      </trkpt>
      <trkpt lat="44.27514" lon="5.86231">
        <ele>603.8452148</ele>
        <time>2016-02-15T11:57:59Z</time>
      </trkpt>
      <trkpt lat="44.27507" lon="5.86151">
        <ele>602.4030762</ele>
        <time>2016-02-15T11:58:06Z</time>
      </trkpt>
      <trkpt lat="44.27474" lon="5.86046">
        <ele>601.4418945</ele>
        <time>2016-02-15T11:58:19Z</time>
      </trkpt>
      <trkpt lat="44.27454" lon="5.85975">
        <ele>602.4030762</ele>
        <time>2016-02-15T11:58:34Z</time>
      </trkpt>
      <trkpt lat="44.27453" lon="5.85972">
        <ele>602.4030762</ele>
        <time>2016-02-15T11:58:35Z</time>
      </trkpt>
      <trkpt lat="44.27442" lon="5.85926">
        <ele>604.3261719</ele>
        <time>2016-02-15T11:58:50Z</time>
      </trkpt>
      <trkpt lat="44.27439" lon="5.85902">
        <ele>606.2485352</ele>
        <time>2016-02-15T11:58:59Z</time>
      </trkpt>
      <trkpt lat="44.27435" lon="5.85857">
        <ele>608.6518555</ele>
        <time>2016-02-15T11:59:15Z</time>
      </trkpt>
      <trkpt lat="44.27435" lon="5.85853">
        <ele>608.6518555</ele>
        <time>2016-02-15T11:59:17Z</time>
      </trkpt>
      <trkpt lat="44.27439" lon="5.8584">
        <ele>609.6132813</ele>
        <time>2016-02-15T11:59:23Z</time>
      </trkpt>
      <trkpt lat="44.27453" lon="5.85816">
        <ele>611.5358887</ele>
        <time>2016-02-15T11:59:34Z</time>
      </trkpt>
      <trkpt lat="44.27471" lon="5.85792">
        <ele>613.9389648</ele>
        <time>2016-02-15T11:59:50Z</time>
      </trkpt>
      <trkpt lat="44.27473" lon="5.85782">
        <ele>615.3811035</ele>
        <time>2016-02-15T11:59:54Z</time>
      </trkpt>
      <trkpt lat="44.27453" lon="5.85776">
        <ele>617.7841797</ele>
        <time>2016-02-15T12:00:07Z</time>
      </trkpt>
      <trkpt lat="44.27445" lon="5.85776">
        <ele>619.2263184</ele>
        <time>2016-02-15T12:00:12Z</time>
      </trkpt>
      <trkpt lat="44.27441" lon="5.85778">
        <ele>619.2263184</ele>
        <time>2016-02-15T12:00:15Z</time>
      </trkpt>
      <trkpt lat="44.27438" lon="5.85777">
        <ele>619.7070313</ele>
        <time>2016-02-15T12:00:18Z</time>
      </trkpt>
      <trkpt lat="44.27416" lon="5.85778">
        <ele>622.1103516</ele>
        <time>2016-02-15T12:00:33Z</time>
      </trkpt>
      <trkpt lat="44.27416" lon="5.85777">
        <ele>621.6296387</ele>
        <time>2016-02-15T12:00:56Z</time>
      </trkpt>
      <trkpt lat="44.27418" lon="5.85777">
        <ele>622.5910645</ele>
        <time>2016-02-15T12:01:21Z</time>
      </trkpt>
      <trkpt lat="44.27419" lon="5.85777">
        <ele>622.1103516</ele>
        <time>2016-02-15T12:01:28Z</time>
      </trkpt>
      <trkpt lat="44.27447" lon="5.85761">
        <ele>622.5910645</ele>
        <time>2016-02-15T12:01:41Z</time>
      </trkpt>
      <trkpt lat="44.27495" lon="5.85734">
        <ele>623.0717773</ele>
        <time>2016-02-15T12:01:57Z</time>
      </trkpt>
      <trkpt lat="44.2751" lon="5.8573">
        <ele>624.032959</ele>
        <time>2016-02-15T12:02:02Z</time>
      </trkpt>
      <trkpt lat="44.27557" lon="5.85722">
        <ele>622.5910645</ele>
        <time>2016-02-15T12:02:17Z</time>
      </trkpt>
      <trkpt lat="44.27607" lon="5.85717">
        <ele>622.1103516</ele>
        <time>2016-02-15T12:02:34Z</time>
      </trkpt>
      <trkpt lat="44.27658" lon="5.8572">
        <ele>620.668457</ele>
        <time>2016-02-15T12:02:49Z</time>
      </trkpt>
      <trkpt lat="44.27722" lon="5.85757">
        <ele>620.668457</ele>
        <time>2016-02-15T12:03:07Z</time>
      </trkpt>
      <trkpt lat="44.27746" lon="5.85769">
        <ele>621.6296387</ele>
        <time>2016-02-15T12:03:16Z</time>
      </trkpt>
      <trkpt lat="44.2778" lon="5.85769">
        <ele>620.1877441</ele>
        <time>2016-02-15T12:03:28Z</time>
      </trkpt>
      <trkpt lat="44.27827" lon="5.85799">
        <ele>619.2263184</ele>
        <time>2016-02-15T12:03:41Z</time>
      </trkpt>
      <trkpt lat="44.27858" lon="5.85818">
        <ele>619.2263184</ele>
        <time>2016-02-15T12:03:52Z</time>
      </trkpt>
      <trkpt lat="44.27877" lon="5.85824">
        <ele>619.7070313</ele>
        <time>2016-02-15T12:03:59Z</time>
      </trkpt>
      <trkpt lat="44.27887" lon="5.85827">
        <ele>618.7456055</ele>
        <time>2016-02-15T12:04:03Z</time>
      </trkpt>
      <trkpt lat="44.27921" lon="5.85835">
        <ele>621.6296387</ele>
        <time>2016-02-15T12:04:17Z</time>
      </trkpt>
      <trkpt lat="44.27923" lon="5.85836">
        <ele>621.6296387</ele>
        <time>2016-02-15T12:04:18Z</time>
      </trkpt>
      <trkpt lat="44.27968" lon="5.85863">
        <ele>622.5910645</ele>
        <time>2016-02-15T12:04:34Z</time>
      </trkpt>
      <trkpt lat="44.27998" lon="5.85882">
        <ele>625.9555664</ele>
        <time>2016-02-15T12:04:47Z</time>
      </trkpt>
      <trkpt lat="44.28041" lon="5.85904">
        <ele>627.8781738</ele>
        <time>2016-02-15T12:05:07Z</time>
      </trkpt>
      <trkpt lat="44.2808" lon="5.85928">
        <ele>629.8007813</ele>
        <time>2016-02-15T12:05:24Z</time>
      </trkpt>
      <trkpt lat="44.28121" lon="5.85959">
        <ele>630.2814941</ele>
        <time>2016-02-15T12:05:40Z</time>
      </trkpt>
      <trkpt lat="44.2816" lon="5.86004">
        <ele>630.762207</ele>
        <time>2016-02-15T12:05:57Z</time>
      </trkpt>
      <trkpt lat="44.28215" lon="5.86076">
        <ele>631.2429199</ele>
        <time>2016-02-15T12:06:17Z</time>
      </trkpt>
      <trkpt lat="44.28277" lon="5.86134">
        <ele>632.6848145</ele>
        <time>2016-02-15T12:06:38Z</time>
      </trkpt>
      <trkpt lat="44.28323" lon="5.86195">
        <ele>633.6459961</ele>
        <time>2016-02-15T12:06:55Z</time>
      </trkpt>
      <trkpt lat="44.28359" lon="5.86264">
        <ele>633.1652832</ele>
        <time>2016-02-15T12:07:12Z</time>
      </trkpt>
      <trkpt lat="44.28381" lon="5.86313">
        <ele>634.126709</ele>
        <time>2016-02-15T12:07:22Z</time>
      </trkpt>
      <trkpt lat="44.28389" lon="5.86329">
        <ele>633.6459961</ele>
        <time>2016-02-15T12:07:25Z</time>
      </trkpt>
      <trkpt lat="44.28401" lon="5.86354">
        <ele>632.6848145</ele>
        <time>2016-02-15T12:07:30Z</time>
      </trkpt>
      <trkpt lat="44.28403" lon="5.86365">
        <ele>630.762207</ele>
        <time>2016-02-15T12:07:32Z</time>
      </trkpt>
      <trkpt lat="44.28408" lon="5.86398">
        <ele>631.7233887</ele>
        <time>2016-02-15T12:07:44Z</time>
      </trkpt>
      <trkpt lat="44.2841" lon="5.8642">
        <ele>630.2814941</ele>
        <time>2016-02-15T12:08:21Z</time>
      </trkpt>
      <trkpt lat="44.28411" lon="5.86478">
        <ele>628.3588867</ele>
        <time>2016-02-15T12:08:29Z</time>
      </trkpt>
      <trkpt lat="44.28428" lon="5.86543">
        <ele>628.3588867</ele>
        <time>2016-02-15T12:08:40Z</time>
      </trkpt>
      <trkpt lat="44.28435" lon="5.86607">
        <ele>628.8395996</ele>
        <time>2016-02-15T12:08:53Z</time>
      </trkpt>
      <trkpt lat="44.28431" lon="5.8666">
        <ele>630.762207</ele>
        <time>2016-02-15T12:09:07Z</time>
      </trkpt>
      <trkpt lat="44.28437" lon="5.86687">
        <ele>632.6848145</ele>
        <time>2016-02-15T12:09:15Z</time>
      </trkpt>
      <trkpt lat="44.28458" lon="5.86728">
        <ele>634.126709</ele>
        <time>2016-02-15T12:09:30Z</time>
      </trkpt>
      <trkpt lat="44.28496" lon="5.86757">
        <ele>635.5686035</ele>
        <time>2016-02-15T12:09:46Z</time>
      </trkpt>
      <trkpt lat="44.28546" lon="5.86792">
        <ele>635.0881348</ele>
        <time>2016-02-15T12:10:06Z</time>
      </trkpt>
      <trkpt lat="44.28592" lon="5.86832">
        <ele>636.0495605</ele>
        <time>2016-02-15T12:10:24Z</time>
      </trkpt>
      <trkpt lat="44.28662" lon="5.86903">
        <ele>636.5302734</ele>
        <time>2016-02-15T12:10:48Z</time>
      </trkpt>
      <trkpt lat="44.28723" lon="5.86954">
        <ele>637.972168</ele>
        <time>2016-02-15T12:11:07Z</time>
      </trkpt>
      <trkpt lat="44.28801" lon="5.87017">
        <ele>637.4914551</ele>
        <time>2016-02-15T12:11:30Z</time>
      </trkpt>
      <trkpt lat="44.28807" lon="5.87022">
        <ele>637.0107422</ele>
        <time>2016-02-15T12:11:32Z</time>
      </trkpt>
      <trkpt lat="44.28879" lon="5.87081">
        <ele>635.5686035</ele>
        <time>2016-02-15T12:11:52Z</time>
      </trkpt>
      <trkpt lat="44.28927" lon="5.87116">
        <ele>634.126709</ele>
        <time>2016-02-15T12:12:06Z</time>
      </trkpt>
      <trkpt lat="44.28976" lon="5.87171">
        <ele>634.126709</ele>
        <time>2016-02-15T12:12:22Z</time>
      </trkpt>
      <trkpt lat="44.29017" lon="5.87218">
        <ele>634.126709</ele>
        <time>2016-02-15T12:12:35Z</time>
      </trkpt>
      <trkpt lat="44.29064" lon="5.87265">
        <ele>632.2041016</ele>
        <time>2016-02-15T12:12:50Z</time>
      </trkpt>
      <trkpt lat="44.29112" lon="5.87307">
        <ele>634.126709</ele>
        <time>2016-02-15T12:13:05Z</time>
      </trkpt>
      <trkpt lat="44.2916" lon="5.8735">
        <ele>634.6074219</ele>
        <time>2016-02-15T12:13:18Z</time>
      </trkpt>
      <trkpt lat="44.29219" lon="5.87392">
        <ele>633.6459961</ele>
        <time>2016-02-15T12:13:34Z</time>
      </trkpt>
      <trkpt lat="44.29238" lon="5.87402">
        <ele>634.126709</ele>
        <time>2016-02-15T12:13:39Z</time>
      </trkpt>
      <trkpt lat="44.29292" lon="5.87464">
        <ele>633.1652832</ele>
        <time>2016-02-15T12:13:54Z</time>
      </trkpt>
      <trkpt lat="44.29295" lon="5.87468">
        <ele>633.1652832</ele>
        <time>2016-02-15T12:13:55Z</time>
      </trkpt>
      <trkpt lat="44.29312" lon="5.8749">
        <ele>634.6074219</ele>
        <time>2016-02-15T12:14:00Z</time>
      </trkpt>
      <trkpt lat="44.29334" lon="5.87525">
        <ele>634.126709</ele>
        <time>2016-02-15T12:14:08Z</time>
      </trkpt>
      <trkpt lat="44.29348" lon="5.87573">
        <ele>635.0881348</ele>
        <time>2016-02-15T12:14:17Z</time>
      </trkpt>
      <trkpt lat="44.29358" lon="5.8759">
        <ele>635.0881348</ele>
        <time>2016-02-15T12:14:21Z</time>
      </trkpt>
      <trkpt lat="44.29387" lon="5.87612">
        <ele>633.1652832</ele>
        <time>2016-02-15T12:14:27Z</time>
      </trkpt>
      <trkpt lat="44.29406" lon="5.87621">
        <ele>631.2429199</ele>
        <time>2016-02-15T12:14:30Z</time>
      </trkpt>
      <trkpt lat="44.29505" lon="5.8767">
        <ele>631.2429199</ele>
        <time>2016-02-15T12:14:47Z</time>
      </trkpt>
      <trkpt lat="44.29583" lon="5.87725">
        <ele>631.2429199</ele>
        <time>2016-02-15T12:15:05Z</time>
      </trkpt>
      <trkpt lat="44.29592" lon="5.87738">
        <ele>631.7233887</ele>
        <time>2016-02-15T12:15:08Z</time>
      </trkpt>
      <trkpt lat="44.29621" lon="5.87803">
        <ele>632.2041016</ele>
        <time>2016-02-15T12:15:20Z</time>
      </trkpt>
      <trkpt lat="44.29627" lon="5.87822">
        <ele>632.6848145</ele>
        <time>2016-02-15T12:15:23Z</time>
      </trkpt>
      <trkpt lat="44.29664" lon="5.87901">
        <ele>632.2041016</ele>
        <time>2016-02-15T12:15:37Z</time>
      </trkpt>
      <trkpt lat="44.29694" lon="5.87975">
        <ele>630.762207</ele>
        <time>2016-02-15T12:15:49Z</time>
      </trkpt>
      <trkpt lat="44.29743" lon="5.88087">
        <ele>627.3977051</ele>
        <time>2016-02-15T12:16:03Z</time>
      </trkpt>
      <trkpt lat="44.29755" lon="5.88116">
        <ele>625.9555664</ele>
        <time>2016-02-15T12:16:06Z</time>
      </trkpt>
      <trkpt lat="44.298" lon="5.88223">
        <ele>624.5136719</ele>
        <time>2016-02-15T12:16:18Z</time>
      </trkpt>
      <trkpt lat="44.29844" lon="5.88279">
        <ele>623.0717773</ele>
        <time>2016-02-15T12:16:27Z</time>
      </trkpt>
      <trkpt lat="44.29861" lon="5.88306">
        <ele>623.0717773</ele>
        <time>2016-02-15T12:16:31Z</time>
      </trkpt>
      <trkpt lat="44.29883" lon="5.88331">
        <ele>624.032959</ele>
        <time>2016-02-15T12:16:36Z</time>
      </trkpt>
      <trkpt lat="44.29925" lon="5.88356">
        <ele>623.5524902</ele>
        <time>2016-02-15T12:16:44Z</time>
      </trkpt>
      <trkpt lat="44.29936" lon="5.8836">
        <ele>623.0717773</ele>
        <time>2016-02-15T12:16:46Z</time>
      </trkpt>
      <trkpt lat="44.30008" lon="5.88386">
        <ele>619.7070313</ele>
        <time>2016-02-15T12:16:57Z</time>
      </trkpt>
      <trkpt lat="44.30016" lon="5.88387">
        <ele>619.7070313</ele>
        <time>2016-02-15T12:16:58Z</time>
      </trkpt>
      <trkpt lat="44.30111" lon="5.88405">
        <ele>615.3811035</ele>
        <time>2016-02-15T12:17:10Z</time>
      </trkpt>
      <trkpt lat="44.30118" lon="5.88407">
        <ele>614.9003906</ele>
        <time>2016-02-15T12:17:11Z</time>
      </trkpt>
      <trkpt lat="44.30138" lon="5.88412">
        <ele>613.9389648</ele>
        <time>2016-02-15T12:17:14Z</time>
      </trkpt>
      <trkpt lat="44.30176" lon="5.88418">
        <ele>612.4970703</ele>
        <time>2016-02-15T12:17:19Z</time>
      </trkpt>
      <trkpt lat="44.30229" lon="5.88425">
        <ele>610.5744629</ele>
        <time>2016-02-15T12:17:26Z</time>
      </trkpt>
      <trkpt lat="44.30248" lon="5.8843">
        <ele>609.6132813</ele>
        <time>2016-02-15T12:17:28Z</time>
      </trkpt>
      <trkpt lat="44.30272" lon="5.88445">
        <ele>609.1325684</ele>
        <time>2016-02-15T12:17:31Z</time>
      </trkpt>
      <trkpt lat="44.30293" lon="5.88463">
        <ele>607.6906738</ele>
        <time>2016-02-15T12:17:34Z</time>
      </trkpt>
      <trkpt lat="44.30336" lon="5.88503">
        <ele>604.3261719</ele>
        <time>2016-02-15T12:17:41Z</time>
      </trkpt>
      <trkpt lat="44.30354" lon="5.88523">
        <ele>603.364502</ele>
        <time>2016-02-15T12:17:44Z</time>
      </trkpt>
      <trkpt lat="44.3039" lon="5.88544">
        <ele>601.9226074</ele>
        <time>2016-02-15T12:17:50Z</time>
      </trkpt>
      <trkpt lat="44.30423" lon="5.8855">
        <ele>600.9611816</ele>
        <time>2016-02-15T12:18:00Z</time>
      </trkpt>
      <trkpt lat="44.30422" lon="5.88553">
        <ele>601.9226074</ele>
        <time>2016-02-15T12:19:36Z</time>
      </trkpt>
      <trkpt lat="44.30422" lon="5.88558">
        <ele>601.4418945</ele>
        <time>2016-02-15T12:20:14Z</time>
      </trkpt>
      <trkpt lat="44.30427" lon="5.88548">
        <ele>602.4030762</ele>
        <time>2016-02-15T12:20:18Z</time>
      </trkpt>
      <trkpt lat="44.30424" lon="5.88511">
        <ele>602.4030762</ele>
        <time>2016-02-15T12:20:28Z</time>
      </trkpt>
      <trkpt lat="44.30411" lon="5.88465">
        <ele>603.364502</ele>
        <time>2016-02-15T12:20:39Z</time>
      </trkpt>
      <trkpt lat="44.30389" lon="5.88391">
        <ele>606.2485352</ele>
        <time>2016-02-15T12:21:00Z</time>
      </trkpt>
      <trkpt lat="44.30377" lon="5.88337">
        <ele>608.1713867</ele>
        <time>2016-02-15T12:21:18Z</time>
      </trkpt>
      <trkpt lat="44.30371" lon="5.88292">
        <ele>611.0551758</ele>
        <time>2016-02-15T12:21:34Z</time>
      </trkpt>
      <trkpt lat="44.30372" lon="5.8826">
        <ele>612.9777832</ele>
        <time>2016-02-15T12:21:46Z</time>
      </trkpt>
      <trkpt lat="44.30373" lon="5.88249">
        <ele>613.4584961</ele>
        <time>2016-02-15T12:21:52Z</time>
      </trkpt>
      <trkpt lat="44.30378" lon="5.88206">
        <ele>615.8618164</ele>
        <time>2016-02-15T12:22:10Z</time>
      </trkpt>
      <trkpt lat="44.30379" lon="5.88194">
        <ele>616.3422852</ele>
        <time>2016-02-15T12:22:15Z</time>
      </trkpt>
      <trkpt lat="44.30384" lon="5.88154">
        <ele>618.7456055</ele>
        <time>2016-02-15T12:22:32Z</time>
      </trkpt>
      <trkpt lat="44.30386" lon="5.88116">
        <ele>620.668457</ele>
        <time>2016-02-15T12:22:49Z</time>
      </trkpt>
      <trkpt lat="44.30388" lon="5.88084">
        <ele>622.5910645</ele>
        <time>2016-02-15T12:23:04Z</time>
      </trkpt>
      <trkpt lat="44.30385" lon="5.88032">
        <ele>624.9943848</ele>
        <time>2016-02-15T12:23:25Z</time>
      </trkpt>
      <trkpt lat="44.3038" lon="5.87982">
        <ele>627.8781738</ele>
        <time>2016-02-15T12:23:45Z</time>
      </trkpt>
      <trkpt lat="44.30378" lon="5.87931">
        <ele>630.2814941</ele>
        <time>2016-02-15T12:24:06Z</time>
      </trkpt>
      <trkpt lat="44.3038" lon="5.87887">
        <ele>632.6848145</ele>
        <time>2016-02-15T12:24:25Z</time>
      </trkpt>
      <trkpt lat="44.30387" lon="5.87848">
        <ele>634.6074219</ele>
        <time>2016-02-15T12:24:43Z</time>
      </trkpt>
      <trkpt lat="44.30396" lon="5.87819">
        <ele>636.5302734</ele>
        <time>2016-02-15T12:24:57Z</time>
      </trkpt>
      <trkpt lat="44.30411" lon="5.87781">
        <ele>639.8947754</ele>
        <time>2016-02-15T12:25:17Z</time>
      </trkpt>
      <trkpt lat="44.30416" lon="5.87773">
        <ele>639.8947754</ele>
        <time>2016-02-15T12:25:22Z</time>
      </trkpt>
      <trkpt lat="44.3042" lon="5.87767">
        <ele>640.855957</ele>
        <time>2016-02-15T12:25:26Z</time>
      </trkpt>
      <trkpt lat="44.30424" lon="5.87755">
        <ele>642.2980957</ele>
        <time>2016-02-15T12:25:32Z</time>
      </trkpt>
      <trkpt lat="44.3044" lon="5.87732">
        <ele>643.7399902</ele>
        <time>2016-02-15T12:25:47Z</time>
      </trkpt>
      <trkpt lat="44.30441" lon="5.87731">
        <ele>643.7399902</ele>
        <time>2016-02-15T12:25:48Z</time>
      </trkpt>
      <trkpt lat="44.30453" lon="5.87714">
        <ele>644.7011719</ele>
        <time>2016-02-15T12:25:58Z</time>
      </trkpt>
      <trkpt lat="44.30477" lon="5.87686">
        <ele>646.6240234</ele>
        <time>2016-02-15T12:26:16Z</time>
      </trkpt>
      <trkpt lat="44.30485" lon="5.87677">
        <ele>647.5852051</ele>
        <time>2016-02-15T12:26:22Z</time>
      </trkpt>
      <trkpt lat="44.30502" lon="5.87656">
        <ele>648.5463867</ele>
        <time>2016-02-15T12:26:35Z</time>
      </trkpt>
      <trkpt lat="44.30506" lon="5.87652">
        <ele>648.5463867</ele>
        <time>2016-02-15T12:26:38Z</time>
      </trkpt>
      <trkpt lat="44.30524" lon="5.87624">
        <ele>649.5078125</ele>
        <time>2016-02-15T12:26:53Z</time>
      </trkpt>
      <trkpt lat="44.30539" lon="5.87587">
        <ele>651.4304199</ele>
        <time>2016-02-15T12:27:09Z</time>
      </trkpt>
      <trkpt lat="44.30551" lon="5.87538">
        <ele>652.3918457</ele>
        <time>2016-02-15T12:27:28Z</time>
      </trkpt>
      <trkpt lat="44.30557" lon="5.87501">
        <ele>652.3918457</ele>
        <time>2016-02-15T12:27:43Z</time>
      </trkpt>
      <trkpt lat="44.30562" lon="5.87449">
        <ele>650.4692383</ele>
        <time>2016-02-15T12:28:01Z</time>
      </trkpt>
      <trkpt lat="44.30558" lon="5.8744">
        <ele>652.3918457</ele>
        <time>2016-02-15T12:28:04Z</time>
      </trkpt>
      <trkpt lat="44.30555" lon="5.87406">
        <ele>651.9111328</ele>
        <time>2016-02-15T12:28:17Z</time>
      </trkpt>
      <trkpt lat="44.30559" lon="5.87396">
        <ele>651.9111328</ele>
        <time>2016-02-15T12:28:30Z</time>
      </trkpt>
      <trkpt lat="44.3056" lon="5.87396">
        <ele>652.3918457</ele>
        <time>2016-02-15T12:28:58Z</time>
      </trkpt>
      <trkpt lat="44.30561" lon="5.87396">
        <ele>651.4304199</ele>
        <time>2016-02-15T12:29:19Z</time>
      </trkpt>
      <trkpt lat="44.30562" lon="5.87396">
        <ele>650.949707</ele>
        <time>2016-02-15T12:29:41Z</time>
      </trkpt>
      <trkpt lat="44.30583" lon="5.87375">
        <ele>650.4692383</ele>
        <time>2016-02-15T12:29:52Z</time>
      </trkpt>
      <trkpt lat="44.30624" lon="5.87298">
        <ele>647.5852051</ele>
        <time>2016-02-15T12:30:09Z</time>
      </trkpt>
      <trkpt lat="44.30647" lon="5.87261">
        <ele>645.1818848</ele>
        <time>2016-02-15T12:30:16Z</time>
      </trkpt>
      <trkpt lat="44.30685" lon="5.87204">
        <ele>643.2592773</ele>
        <time>2016-02-15T12:30:26Z</time>
      </trkpt>
      <trkpt lat="44.30719" lon="5.87149">
        <ele>639.8947754</ele>
        <time>2016-02-15T12:30:36Z</time>
      </trkpt>
      <trkpt lat="44.30723" lon="5.87144">
        <ele>639.8947754</ele>
        <time>2016-02-15T12:30:37Z</time>
      </trkpt>
      <trkpt lat="44.30772" lon="5.87069">
        <ele>638.9335938</ele>
        <time>2016-02-15T12:30:52Z</time>
      </trkpt>
      <trkpt lat="44.30788" lon="5.87042">
        <ele>638.4528809</ele>
        <time>2016-02-15T12:30:57Z</time>
      </trkpt>
      <trkpt lat="44.30815" lon="5.86961">
        <ele>635.0881348</ele>
        <time>2016-02-15T12:31:09Z</time>
      </trkpt>
      <trkpt lat="44.30828" lon="5.86895">
        <ele>632.6848145</ele>
        <time>2016-02-15T12:31:17Z</time>
      </trkpt>
      <trkpt lat="44.30831" lon="5.86833">
        <ele>630.762207</ele>
        <time>2016-02-15T12:31:24Z</time>
      </trkpt>
      <trkpt lat="44.30825" lon="5.86757">
        <ele>627.3977051</ele>
        <time>2016-02-15T12:31:32Z</time>
      </trkpt>
      <trkpt lat="44.30816" lon="5.86694">
        <ele>624.9943848</ele>
        <time>2016-02-15T12:31:38Z</time>
      </trkpt>
      <trkpt lat="44.3081" lon="5.86649">
        <ele>622.5910645</ele>
        <time>2016-02-15T12:31:42Z</time>
      </trkpt>
      <trkpt lat="44.30805" lon="5.86617">
        <ele>621.1491699</ele>
        <time>2016-02-15T12:31:45Z</time>
      </trkpt>
      <trkpt lat="44.30803" lon="5.86596">
        <ele>619.2263184</ele>
        <time>2016-02-15T12:31:47Z</time>
      </trkpt>
      <trkpt lat="44.30797" lon="5.86556">
        <ele>617.7841797</ele>
        <time>2016-02-15T12:31:51Z</time>
      </trkpt>
      <trkpt lat="44.3079" lon="5.86527">
        <ele>615.8618164</ele>
        <time>2016-02-15T12:31:54Z</time>
      </trkpt>
      <trkpt lat="44.30764" lon="5.86455">
        <ele>612.9777832</ele>
        <time>2016-02-15T12:32:01Z</time>
      </trkpt>
      <trkpt lat="44.30733" lon="5.86392">
        <ele>609.6132813</ele>
        <time>2016-02-15T12:32:07Z</time>
      </trkpt>
      <trkpt lat="44.30728" lon="5.86381">
        <ele>609.6132813</ele>
        <time>2016-02-15T12:32:08Z</time>
      </trkpt>
      <trkpt lat="44.30708" lon="5.86343">
        <ele>607.6906738</ele>
        <time>2016-02-15T12:32:12Z</time>
      </trkpt>
      <trkpt lat="44.3069" lon="5.86298">
        <ele>605.7680664</ele>
        <time>2016-02-15T12:32:17Z</time>
      </trkpt>
      <trkpt lat="44.30678" lon="5.86246">
        <ele>604.3261719</ele>
        <time>2016-02-15T12:32:23Z</time>
      </trkpt>
      <trkpt lat="44.30676" lon="5.8622">
        <ele>602.4030762</ele>
        <time>2016-02-15T12:32:26Z</time>
      </trkpt>
      <trkpt lat="44.30674" lon="5.86203">
        <ele>602.4030762</ele>
        <time>2016-02-15T12:32:28Z</time>
      </trkpt>
      <trkpt lat="44.30675" lon="5.86177">
        <ele>601.4418945</ele>
        <time>2016-02-15T12:32:32Z</time>
      </trkpt>
      <trkpt lat="44.30689" lon="5.86153">
        <ele>599.5192871</ele>
        <time>2016-02-15T12:32:38Z</time>
      </trkpt>
      <trkpt lat="44.30706" lon="5.86165">
        <ele>599.5192871</ele>
        <time>2016-02-15T12:32:42Z</time>
      </trkpt>
      <trkpt lat="44.30722" lon="5.86193">
        <ele>601.9226074</ele>
        <time>2016-02-15T12:32:49Z</time>
      </trkpt>
      <trkpt lat="44.30752" lon="5.86239">
        <ele>604.3261719</ele>
        <time>2016-02-15T12:33:06Z</time>
      </trkpt>
      <trkpt lat="44.30781" lon="5.86281">
        <ele>606.2485352</ele>
        <time>2016-02-15T12:33:24Z</time>
      </trkpt>
      <trkpt lat="44.30808" lon="5.86321">
        <ele>608.6518555</ele>
        <time>2016-02-15T12:33:41Z</time>
      </trkpt>
      <trkpt lat="44.30835" lon="5.86365">
        <ele>610.09375</ele>
        <time>2016-02-15T12:33:58Z</time>
      </trkpt>
      <trkpt lat="44.30868" lon="5.8641">
        <ele>611.5358887</ele>
        <time>2016-02-15T12:34:16Z</time>
      </trkpt>
      <trkpt lat="44.30902" lon="5.86424">
        <ele>612.0166016</ele>
        <time>2016-02-15T12:34:31Z</time>
      </trkpt>
      <trkpt lat="44.30942" lon="5.86434">
        <ele>614.9003906</ele>
        <time>2016-02-15T12:34:48Z</time>
      </trkpt>
      <trkpt lat="44.30978" lon="5.8644">
        <ele>616.822998</ele>
        <time>2016-02-15T12:35:05Z</time>
      </trkpt>
      <trkpt lat="44.31011" lon="5.86445">
        <ele>619.2263184</ele>
        <time>2016-02-15T12:35:23Z</time>
      </trkpt>
      <trkpt lat="44.31042" lon="5.86448">
        <ele>622.5910645</ele>
        <time>2016-02-15T12:35:40Z</time>
      </trkpt>
      <trkpt lat="44.31071" lon="5.86453">
        <ele>624.032959</ele>
        <time>2016-02-15T12:35:55Z</time>
      </trkpt>
      <trkpt lat="44.31108" lon="5.86479">
        <ele>624.032959</ele>
        <time>2016-02-15T12:36:15Z</time>
      </trkpt>
      <trkpt lat="44.31126" lon="5.86512">
        <ele>625.9555664</ele>
        <time>2016-02-15T12:36:29Z</time>
      </trkpt>
      <trkpt lat="44.31142" lon="5.86548">
        <ele>629.8007813</ele>
        <time>2016-02-15T12:36:44Z</time>
      </trkpt>
      <trkpt lat="44.31164" lon="5.86592">
        <ele>630.762207</ele>
        <time>2016-02-15T12:37:04Z</time>
      </trkpt>
      <trkpt lat="44.31189" lon="5.86627">
        <ele>633.1652832</ele>
        <time>2016-02-15T12:37:23Z</time>
      </trkpt>
      <trkpt lat="44.31213" lon="5.86645">
        <ele>634.126709</ele>
        <time>2016-02-15T12:37:38Z</time>
      </trkpt>
      <trkpt lat="44.31234" lon="5.86656">
        <ele>636.0495605</ele>
        <time>2016-02-15T12:37:50Z</time>
      </trkpt>
      <trkpt lat="44.31265" lon="5.86671">
        <ele>637.4914551</ele>
        <time>2016-02-15T12:38:09Z</time>
      </trkpt>
      <trkpt lat="44.31288" lon="5.86683">
        <ele>639.8947754</ele>
        <time>2016-02-15T12:38:23Z</time>
      </trkpt>
      <trkpt lat="44.31292" lon="5.86685">
        <ele>639.8947754</ele>
        <time>2016-02-15T12:38:26Z</time>
      </trkpt>
      <trkpt lat="44.31315" lon="5.86697">
        <ele>642.7788086</ele>
        <time>2016-02-15T12:38:40Z</time>
      </trkpt>
      <trkpt lat="44.31318" lon="5.867">
        <ele>643.2592773</ele>
        <time>2016-02-15T12:38:42Z</time>
      </trkpt>
      <trkpt lat="44.3132" lon="5.86703">
        <ele>643.7399902</ele>
        <time>2016-02-15T12:38:44Z</time>
      </trkpt>
      <trkpt lat="44.31327" lon="5.86707">
        <ele>644.7011719</ele>
        <time>2016-02-15T12:38:49Z</time>
      </trkpt>
      <trkpt lat="44.31332" lon="5.86714">
        <ele>645.1818848</ele>
        <time>2016-02-15T12:38:54Z</time>
      </trkpt>
      <trkpt lat="44.31336" lon="5.86718">
        <ele>645.6625977</ele>
        <time>2016-02-15T12:38:58Z</time>
      </trkpt>
      <trkpt lat="44.31348" lon="5.86726">
        <ele>647.1044922</ele>
        <time>2016-02-15T12:39:06Z</time>
      </trkpt>
      <trkpt lat="44.31351" lon="5.86734">
        <ele>647.5852051</ele>
        <time>2016-02-15T12:39:10Z</time>
      </trkpt>
      <trkpt lat="44.31357" lon="5.86737">
        <ele>648.065918</ele>
        <time>2016-02-15T12:39:14Z</time>
      </trkpt>
      <trkpt lat="44.3137" lon="5.86758">
        <ele>650.949707</ele>
        <time>2016-02-15T12:39:27Z</time>
      </trkpt>
      <trkpt lat="44.31385" lon="5.86791">
        <ele>652.8725586</ele>
        <time>2016-02-15T12:39:44Z</time>
      </trkpt>
      <trkpt lat="44.31388" lon="5.86797">
        <ele>652.8725586</ele>
        <time>2016-02-15T12:39:48Z</time>
      </trkpt>
      <trkpt lat="44.314" lon="5.86823">
        <ele>655.2758789</ele>
        <time>2016-02-15T12:40:03Z</time>
      </trkpt>
      <trkpt lat="44.31415" lon="5.86852">
        <ele>656.7177734</ele>
        <time>2016-02-15T12:40:20Z</time>
      </trkpt>
      <trkpt lat="44.31431" lon="5.8689">
        <ele>658.6403809</ele>
        <time>2016-02-15T12:40:40Z</time>
      </trkpt>
      <trkpt lat="44.31458" lon="5.86921">
        <ele>659.1210938</ele>
        <time>2016-02-15T12:41:00Z</time>
      </trkpt>
      <trkpt lat="44.31482" lon="5.86942">
        <ele>662.005127</ele>
        <time>2016-02-15T12:41:16Z</time>
      </trkpt>
      <trkpt lat="44.31487" lon="5.86946">
        <ele>662.005127</ele>
        <time>2016-02-15T12:41:20Z</time>
      </trkpt>
      <trkpt lat="44.31512" lon="5.86962">
        <ele>664.4082031</ele>
        <time>2016-02-15T12:41:38Z</time>
      </trkpt>
      <trkpt lat="44.31532" lon="5.86974">
        <ele>666.3308105</ele>
        <time>2016-02-15T12:41:54Z</time>
      </trkpt>
      <trkpt lat="44.31549" lon="5.86986">
        <ele>668.2536621</ele>
        <time>2016-02-15T12:42:08Z</time>
      </trkpt>
      <trkpt lat="44.31551" lon="5.86988">
        <ele>668.734375</ele>
        <time>2016-02-15T12:42:10Z</time>
      </trkpt>
      <trkpt lat="44.31554" lon="5.86992">
        <ele>669.2150879</ele>
        <time>2016-02-15T12:42:13Z</time>
      </trkpt>
      <trkpt lat="44.31577" lon="5.87007">
        <ele>671.1376953</ele>
        <time>2016-02-15T12:42:30Z</time>
      </trkpt>
      <trkpt lat="44.31585" lon="5.87013">
        <ele>671.6181641</ele>
        <time>2016-02-15T12:42:35Z</time>
      </trkpt>
      <trkpt lat="44.31589" lon="5.87015">
        <ele>671.6181641</ele>
        <time>2016-02-15T12:42:38Z</time>
      </trkpt>
      <trkpt lat="44.31599" lon="5.87022">
        <ele>673.0603027</ele>
        <time>2016-02-15T12:42:47Z</time>
      </trkpt>
      <trkpt lat="44.31604" lon="5.87024">
        <ele>674.0214844</ele>
        <time>2016-02-15T12:42:51Z</time>
      </trkpt>
      <trkpt lat="44.31618" lon="5.87037">
        <ele>675.9440918</ele>
        <time>2016-02-15T12:43:04Z</time>
      </trkpt>
      <trkpt lat="44.31637" lon="5.87054">
        <ele>677.3862305</ele>
        <time>2016-02-15T12:43:17Z</time>
      </trkpt>
      <trkpt lat="44.31651" lon="5.87076">
        <ele>679.3085938</ele>
        <time>2016-02-15T12:43:32Z</time>
      </trkpt>
      <trkpt lat="44.31655" lon="5.87094">
        <ele>680.7507324</ele>
        <time>2016-02-15T12:43:43Z</time>
      </trkpt>
      <trkpt lat="44.31659" lon="5.871">
        <ele>681.7119141</ele>
        <time>2016-02-15T12:43:48Z</time>
      </trkpt>
      <trkpt lat="44.31662" lon="5.87111">
        <ele>683.1538086</ele>
        <time>2016-02-15T12:43:54Z</time>
      </trkpt>
      <trkpt lat="44.31657" lon="5.87122">
        <ele>684.1154785</ele>
        <time>2016-02-15T12:44:01Z</time>
      </trkpt>
      <trkpt lat="44.31656" lon="5.87126">
        <ele>684.5961914</ele>
        <time>2016-02-15T12:44:03Z</time>
      </trkpt>
      <trkpt lat="44.31656" lon="5.87136">
        <ele>685.557373</ele>
        <time>2016-02-15T12:44:09Z</time>
      </trkpt>
      <trkpt lat="44.31655" lon="5.87158">
        <ele>688.9221191</ele>
        <time>2016-02-15T12:44:21Z</time>
      </trkpt>
      <trkpt lat="44.31655" lon="5.8716">
        <ele>688.9221191</ele>
        <time>2016-02-15T12:44:23Z</time>
      </trkpt>
      <trkpt lat="44.31654" lon="5.87175">
        <ele>690.3640137</ele>
        <time>2016-02-15T12:44:32Z</time>
      </trkpt>
      <trkpt lat="44.3165" lon="5.87197">
        <ele>692.2866211</ele>
        <time>2016-02-15T12:44:45Z</time>
      </trkpt>
      <trkpt lat="44.3165" lon="5.87198">
        <ele>692.767334</ele>
        <time>2016-02-15T12:44:46Z</time>
      </trkpt>
      <trkpt lat="44.31649" lon="5.87213">
        <ele>693.2478027</ele>
        <time>2016-02-15T12:44:56Z</time>
      </trkpt>
      <trkpt lat="44.31645" lon="5.87223">
        <ele>694.2092285</ele>
        <time>2016-02-15T12:45:02Z</time>
      </trkpt>
      <trkpt lat="44.31644" lon="5.8723">
        <ele>695.1704102</ele>
        <time>2016-02-15T12:45:07Z</time>
      </trkpt>
      <trkpt lat="44.31642" lon="5.87247">
        <ele>696.6125488</ele>
        <time>2016-02-15T12:45:17Z</time>
      </trkpt>
      <trkpt lat="44.31642" lon="5.87251">
        <ele>697.0930176</ele>
        <time>2016-02-15T12:45:21Z</time>
      </trkpt>
      <trkpt lat="44.31641" lon="5.87261">
        <ele>698.0544434</ele>
        <time>2016-02-15T12:45:27Z</time>
      </trkpt>
      <trkpt lat="44.31641" lon="5.87268">
        <ele>698.0544434</ele>
        <time>2016-02-15T12:45:30Z</time>
      </trkpt>
      <trkpt lat="44.31638" lon="5.87278">
        <ele>698.5349121</ele>
        <time>2016-02-15T12:45:36Z</time>
      </trkpt>
      <trkpt lat="44.31636" lon="5.87287">
        <ele>699.9770508</ele>
        <time>2016-02-15T12:45:42Z</time>
      </trkpt>
      <trkpt lat="44.31636" lon="5.87295">
        <ele>700.4580078</ele>
        <time>2016-02-15T12:45:47Z</time>
      </trkpt>
      <trkpt lat="44.31635" lon="5.87301">
        <ele>701.8999023</ele>
        <time>2016-02-15T12:45:50Z</time>
      </trkpt>
      <trkpt lat="44.31637" lon="5.8731">
        <ele>702.3803711</ele>
        <time>2016-02-15T12:45:56Z</time>
      </trkpt>
      <trkpt lat="44.31637" lon="5.87313">
        <ele>702.3803711</ele>
        <time>2016-02-15T12:45:58Z</time>
      </trkpt>
      <trkpt lat="44.31638" lon="5.87325">
        <ele>703.8225098</ele>
        <time>2016-02-15T12:46:06Z</time>
      </trkpt>
      <trkpt lat="44.31641" lon="5.87334">
        <ele>704.7836914</ele>
        <time>2016-02-15T12:46:12Z</time>
      </trkpt>
      <trkpt lat="44.31641" lon="5.87336">
        <ele>705.7451172</ele>
        <time>2016-02-15T12:46:31Z</time>
      </trkpt>
      <trkpt lat="44.3164" lon="5.87336">
        <ele>704.7836914</ele>
        <time>2016-02-15T12:47:02Z</time>
      </trkpt>
      <trkpt lat="44.3164" lon="5.87336">
        <ele>704.3032227</ele>
        <time>2016-02-15T12:47:13Z</time>
      </trkpt>
      <trkpt lat="44.3164" lon="5.87338">
        <ele>704.7836914</ele>
        <time>2016-02-15T12:47:36Z</time>
      </trkpt>
      <trkpt lat="44.31639" lon="5.87344">
        <ele>704.7836914</ele>
        <time>2016-02-15T12:47:50Z</time>
      </trkpt>
      <trkpt lat="44.3165" lon="5.87339">
        <ele>705.2644043</ele>
        <time>2016-02-15T12:48:00Z</time>
      </trkpt>
      <trkpt lat="44.31658" lon="5.87346">
        <ele>707.1870117</ele>
        <time>2016-02-15T12:48:06Z</time>
      </trkpt>
      <trkpt lat="44.31663" lon="5.87353">
        <ele>707.6677246</ele>
        <time>2016-02-15T12:48:10Z</time>
      </trkpt>
      <trkpt lat="44.31681" lon="5.87365">
        <ele>710.5515137</ele>
        <time>2016-02-15T12:48:24Z</time>
      </trkpt>
      <trkpt lat="44.31683" lon="5.87367">
        <ele>710.5515137</ele>
        <time>2016-02-15T12:48:26Z</time>
      </trkpt>
      <trkpt lat="44.31691" lon="5.87382">
        <ele>711.9936523</ele>
        <time>2016-02-15T12:48:35Z</time>
      </trkpt>
      <trkpt lat="44.31692" lon="5.87406">
        <ele>713.4355469</ele>
        <time>2016-02-15T12:48:45Z</time>
      </trkpt>
      <trkpt lat="44.31688" lon="5.87428">
        <ele>714.8774414</ele>
        <time>2016-02-15T12:48:56Z</time>
      </trkpt>
      <trkpt lat="44.31687" lon="5.87432">
        <ele>715.3581543</ele>
        <time>2016-02-15T12:48:58Z</time>
      </trkpt>
      <trkpt lat="44.31684" lon="5.8744">
        <ele>715.8388672</ele>
        <time>2016-02-15T12:49:03Z</time>
      </trkpt>
      <trkpt lat="44.31683" lon="5.87445">
        <ele>716.3195801</ele>
        <time>2016-02-15T12:49:06Z</time>
      </trkpt>
      <trkpt lat="44.31679" lon="5.8746">
        <ele>716.800293</ele>
        <time>2016-02-15T12:49:14Z</time>
      </trkpt>
      <trkpt lat="44.31678" lon="5.87464">
        <ele>716.800293</ele>
        <time>2016-02-15T12:49:16Z</time>
      </trkpt>
      <trkpt lat="44.31679" lon="5.87486">
        <ele>718.2421875</ele>
        <time>2016-02-15T12:49:27Z</time>
      </trkpt>
      <trkpt lat="44.31689" lon="5.87501">
        <ele>720.6455078</ele>
        <time>2016-02-15T12:49:37Z</time>
      </trkpt>
      <trkpt lat="44.31704" lon="5.87503">
        <ele>722.0874023</ele>
        <time>2016-02-15T12:49:50Z</time>
      </trkpt>
      <trkpt lat="44.31708" lon="5.87503">
        <ele>723.0488281</ele>
        <time>2016-02-15T12:49:52Z</time>
      </trkpt>
      <trkpt lat="44.31714" lon="5.87501">
        <ele>723.529541</ele>
        <time>2016-02-15T12:49:56Z</time>
      </trkpt>
      <trkpt lat="44.31725" lon="5.87498">
        <ele>726.4133301</ele>
        <time>2016-02-15T12:50:10Z</time>
      </trkpt>
      <trkpt lat="44.31725" lon="5.87498">
        <ele>725.9326172</ele>
        <time>2016-02-15T12:50:25Z</time>
      </trkpt>
      <trkpt lat="44.31727" lon="5.87498">
        <ele>726.4133301</ele>
        <time>2016-02-15T12:50:42Z</time>
      </trkpt>
      <trkpt lat="44.31737" lon="5.8748">
        <ele>728.8166504</ele>
        <time>2016-02-15T12:51:01Z</time>
      </trkpt>
      <trkpt lat="44.3175" lon="5.87467">
        <ele>730.2585449</ele>
        <time>2016-02-15T12:51:21Z</time>
      </trkpt>
      <trkpt lat="44.31759" lon="5.87465">
        <ele>731.2199707</ele>
        <time>2016-02-15T12:51:42Z</time>
      </trkpt>
      <trkpt lat="44.31769" lon="5.87454">
        <ele>730.7392578</ele>
        <time>2016-02-15T12:52:04Z</time>
      </trkpt>
      <trkpt lat="44.31772" lon="5.87437">
        <ele>731.7004395</ele>
        <time>2016-02-15T12:52:21Z</time>
      </trkpt>
      <trkpt lat="44.3177" lon="5.87401">
        <ele>732.1813965</ele>
        <time>2016-02-15T12:52:48Z</time>
      </trkpt>
      <trkpt lat="44.3178" lon="5.87379">
        <ele>733.623291</ele>
        <time>2016-02-15T12:53:16Z</time>
      </trkpt>
      <trkpt lat="44.31779" lon="5.87381">
        <ele>732.6621094</ele>
        <time>2016-02-15T12:53:47Z</time>
      </trkpt>
      <trkpt lat="44.31779" lon="5.87381">
        <ele>732.6621094</ele>
        <time>2016-02-15T12:53:49Z</time>
      </trkpt>
      <trkpt lat="44.31775" lon="5.87375">
        <ele>732.1813965</ele>
        <time>2016-02-15T12:53:54Z</time>
      </trkpt>
      <trkpt lat="44.31769" lon="5.87374">
        <ele>732.1813965</ele>
        <time>2016-02-15T12:53:58Z</time>
      </trkpt>
      <trkpt lat="44.31765" lon="5.87378">
        <ele>730.2585449</ele>
        <time>2016-02-15T12:54:01Z</time>
      </trkpt>
      <trkpt lat="44.31756" lon="5.87392">
        <ele>728.3359375</ele>
        <time>2016-02-15T12:54:04Z</time>
      </trkpt>
      <trkpt lat="44.31744" lon="5.87445">
        <ele>726.894043</ele>
        <time>2016-02-15T12:54:16Z</time>
      </trkpt>
      <trkpt lat="44.3174" lon="5.87447">
        <ele>727.3747559</ele>
        <time>2016-02-15T12:54:19Z</time>
      </trkpt>
      <trkpt lat="44.31731" lon="5.87445">
        <ele>727.3747559</ele>
        <time>2016-02-15T12:54:23Z</time>
      </trkpt>
      <trkpt lat="44.31721" lon="5.87443">
        <ele>726.894043</ele>
        <time>2016-02-15T12:54:28Z</time>
      </trkpt>
      <trkpt lat="44.31721" lon="5.87442">
        <ele>726.4133301</ele>
        <time>2016-02-15T12:54:41Z</time>
      </trkpt>
      <trkpt lat="44.31725" lon="5.87442">
        <ele>726.4133301</ele>
        <time>2016-02-15T12:54:59Z</time>
      </trkpt>
      <trkpt lat="44.31707" lon="5.87477">
        <ele>724.0100098</ele>
        <time>2016-02-15T12:55:11Z</time>
      </trkpt>
      <trkpt lat="44.31704" lon="5.87494">
        <ele>722.0874023</ele>
        <time>2016-02-15T12:55:19Z</time>
      </trkpt>
      <trkpt lat="44.31707" lon="5.87499">
        <ele>720.6455078</ele>
        <time>2016-02-15T12:55:22Z</time>
      </trkpt>
      <trkpt lat="44.31711" lon="5.87498">
        <ele>721.1262207</ele>
        <time>2016-02-15T12:55:24Z</time>
      </trkpt>
      <trkpt lat="44.31726" lon="5.87493">
        <ele>723.529541</ele>
        <time>2016-02-15T12:55:31Z</time>
      </trkpt>
      <trkpt lat="44.31729" lon="5.87492">
        <ele>724.4907227</ele>
        <time>2016-02-15T12:55:35Z</time>
      </trkpt>
      <trkpt lat="44.31739" lon="5.87481">
        <ele>727.3747559</ele>
        <time>2016-02-15T12:55:46Z</time>
      </trkpt>
      <trkpt lat="44.31754" lon="5.87478">
        <ele>729.2971191</ele>
        <time>2016-02-15T12:55:58Z</time>
      </trkpt>
      <trkpt lat="44.31759" lon="5.87478">
        <ele>729.2971191</ele>
        <time>2016-02-15T12:56:03Z</time>
      </trkpt>
      <trkpt lat="44.31772" lon="5.8748">
        <ele>729.2971191</ele>
        <time>2016-02-15T12:56:09Z</time>
      </trkpt>
      <trkpt lat="44.31774" lon="5.87483">
        <ele>728.8166504</ele>
        <time>2016-02-15T12:56:11Z</time>
      </trkpt>
      <trkpt lat="44.31819" lon="5.8751">
        <ele>725.9326172</ele>
        <time>2016-02-15T12:56:21Z</time>
      </trkpt>
      <trkpt lat="44.31848" lon="5.87546">
        <ele>726.4133301</ele>
        <time>2016-02-15T12:56:28Z</time>
      </trkpt>
      <trkpt lat="44.31876" lon="5.87548">
        <ele>729.2971191</ele>
        <time>2016-02-15T12:56:41Z</time>
      </trkpt>
      <trkpt lat="44.31886" lon="5.8754">
        <ele>730.2585449</ele>
        <time>2016-02-15T12:56:49Z</time>
      </trkpt>
      <trkpt lat="44.31898" lon="5.87537">
        <ele>731.7004395</ele>
        <time>2016-02-15T12:56:57Z</time>
      </trkpt>
      <trkpt lat="44.31917" lon="5.87519">
        <ele>731.7004395</ele>
        <time>2016-02-15T12:57:09Z</time>
      </trkpt>
      <trkpt lat="44.31944" lon="5.87506">
        <ele>731.2199707</ele>
        <time>2016-02-15T12:57:22Z</time>
      </trkpt>
      <trkpt lat="44.31951" lon="5.8751">
        <ele>730.7392578</ele>
        <time>2016-02-15T12:57:32Z</time>
      </trkpt>
      <trkpt lat="44.31952" lon="5.87508">
        <ele>732.1813965</ele>
        <time>2016-02-15T12:57:46Z</time>
      </trkpt>
      <trkpt lat="44.31952" lon="5.87506">
        <ele>733.1425781</ele>
        <time>2016-02-15T12:59:00Z</time>
      </trkpt>
      <trkpt lat="44.31958" lon="5.87503">
        <ele>732.1813965</ele>
        <time>2016-02-15T12:59:11Z</time>
      </trkpt>
      <trkpt lat="44.31974" lon="5.87508">
        <ele>731.7004395</ele>
        <time>2016-02-15T12:59:21Z</time>
      </trkpt>
      <trkpt lat="44.31989" lon="5.87553">
        <ele>731.2199707</ele>
        <time>2016-02-15T12:59:34Z</time>
      </trkpt>
      <trkpt lat="44.31987" lon="5.87567">
        <ele>730.7392578</ele>
        <time>2016-02-15T12:59:37Z</time>
      </trkpt>
      <trkpt lat="44.3198" lon="5.87579">
        <ele>730.2585449</ele>
        <time>2016-02-15T12:59:41Z</time>
      </trkpt>
      <trkpt lat="44.31982" lon="5.87579">
        <ele>730.2585449</ele>
        <time>2016-02-15T12:59:52Z</time>
      </trkpt>
      <trkpt lat="44.3198" lon="5.87577">
        <ele>730.2585449</ele>
        <time>2016-02-15T13:00:16Z</time>
      </trkpt>
      <trkpt lat="44.31979" lon="5.87568">
        <ele>729.777832</ele>
        <time>2016-02-15T13:00:28Z</time>
      </trkpt>
      <trkpt lat="44.31987" lon="5.87571">
        <ele>729.777832</ele>
        <time>2016-02-15T13:00:55Z</time>
      </trkpt>
      <trkpt lat="44.31991" lon="5.8756">
        <ele>730.7392578</ele>
        <time>2016-02-15T13:01:00Z</time>
      </trkpt>
      <trkpt lat="44.31991" lon="5.87549">
        <ele>731.2199707</ele>
        <time>2016-02-15T13:01:03Z</time>
      </trkpt>
      <trkpt lat="44.31988" lon="5.87536">
        <ele>731.2199707</ele>
        <time>2016-02-15T13:01:07Z</time>
      </trkpt>
      <trkpt lat="44.31971" lon="5.87504">
        <ele>731.2199707</ele>
        <time>2016-02-15T13:01:19Z</time>
      </trkpt>
      <trkpt lat="44.31945" lon="5.87501">
        <ele>733.1425781</ele>
        <time>2016-02-15T13:01:30Z</time>
      </trkpt>
      <trkpt lat="44.3194" lon="5.87504">
        <ele>732.6621094</ele>
        <time>2016-02-15T13:01:32Z</time>
      </trkpt>
      <trkpt lat="44.31908" lon="5.87521">
        <ele>732.6621094</ele>
        <time>2016-02-15T13:01:46Z</time>
      </trkpt>
      <trkpt lat="44.31878" lon="5.87547">
        <ele>732.6621094</ele>
        <time>2016-02-15T13:01:58Z</time>
      </trkpt>
      <trkpt lat="44.31873" lon="5.87549">
        <ele>731.7004395</ele>
        <time>2016-02-15T13:01:59Z</time>
      </trkpt>
      <trkpt lat="44.31861" lon="5.87553">
        <ele>730.2585449</ele>
        <time>2016-02-15T13:02:02Z</time>
      </trkpt>
      <trkpt lat="44.31854" lon="5.87552">
        <ele>729.2971191</ele>
        <time>2016-02-15T13:02:04Z</time>
      </trkpt>
      <trkpt lat="44.31844" lon="5.87545">
        <ele>727.3747559</ele>
        <time>2016-02-15T13:02:07Z</time>
      </trkpt>
      <trkpt lat="44.31838" lon="5.87536">
        <ele>726.894043</ele>
        <time>2016-02-15T13:02:09Z</time>
      </trkpt>
      <trkpt lat="44.31832" lon="5.87525">
        <ele>726.894043</ele>
        <time>2016-02-15T13:02:11Z</time>
      </trkpt>
      <trkpt lat="44.31806" lon="5.87492">
        <ele>727.3747559</ele>
        <time>2016-02-15T13:02:22Z</time>
      </trkpt>
      <trkpt lat="44.31798" lon="5.87485">
        <ele>728.3359375</ele>
        <time>2016-02-15T13:02:26Z</time>
      </trkpt>
      <trkpt lat="44.31789" lon="5.87479">
        <ele>728.8166504</ele>
        <time>2016-02-15T13:02:30Z</time>
      </trkpt>
      <trkpt lat="44.31787" lon="5.87471">
        <ele>729.2971191</ele>
        <time>2016-02-15T13:02:33Z</time>
      </trkpt>
      <trkpt lat="44.31779" lon="5.87471">
        <ele>729.777832</ele>
        <time>2016-02-15T13:02:37Z</time>
      </trkpt>
      <trkpt lat="44.31759" lon="5.87475">
        <ele>728.8166504</ele>
        <time>2016-02-15T13:02:45Z</time>
      </trkpt>
      <trkpt lat="44.31729" lon="5.87505">
        <ele>725.4519043</ele>
        <time>2016-02-15T13:02:56Z</time>
      </trkpt>
      <trkpt lat="44.31725" lon="5.87507">
        <ele>724.4907227</ele>
        <time>2016-02-15T13:02:57Z</time>
      </trkpt>
      <trkpt lat="44.31701" lon="5.87501">
        <ele>722.0874023</ele>
        <time>2016-02-15T13:03:02Z</time>
      </trkpt>
      <trkpt lat="44.31691" lon="5.87497">
        <ele>720.6455078</ele>
        <time>2016-02-15T13:03:05Z</time>
      </trkpt>
      <trkpt lat="44.31685" lon="5.87493">
        <ele>719.2036133</ele>
        <time>2016-02-15T13:03:07Z</time>
      </trkpt>
      <trkpt lat="44.31677" lon="5.87491">
        <ele>717.2810059</ele>
        <time>2016-02-15T13:03:18Z</time>
      </trkpt>
      <trkpt lat="44.31677" lon="5.87493">
        <ele>717.7614746</ele>
        <time>2016-02-15T13:03:36Z</time>
      </trkpt>
      <trkpt lat="44.31679" lon="5.87504">
        <ele>717.7614746</ele>
        <time>2016-02-15T13:03:40Z</time>
      </trkpt>
      <trkpt lat="44.31686" lon="5.87513">
        <ele>716.3195801</ele>
        <time>2016-02-15T13:03:42Z</time>
      </trkpt>
      <trkpt lat="44.31702" lon="5.87524">
        <ele>715.8388672</ele>
        <time>2016-02-15T13:03:46Z</time>
      </trkpt>
      <trkpt lat="44.31736" lon="5.87527">
        <ele>715.3581543</ele>
        <time>2016-02-15T13:03:57Z</time>
      </trkpt>
      <trkpt lat="44.31756" lon="5.87522">
        <ele>714.3967285</ele>
        <time>2016-02-15T13:04:01Z</time>
      </trkpt>
      <trkpt lat="44.31769" lon="5.8752">
        <ele>714.3967285</ele>
        <time>2016-02-15T13:04:03Z</time>
      </trkpt>
      <trkpt lat="44.3181" lon="5.87539">
        <ele>716.3195801</ele>
        <time>2016-02-15T13:04:13Z</time>
      </trkpt>
      <trkpt lat="44.31829" lon="5.87568">
        <ele>718.7229004</ele>
        <time>2016-02-15T13:04:24Z</time>
      </trkpt>
      <trkpt lat="44.31835" lon="5.87577">
        <ele>719.2036133</ele>
        <time>2016-02-15T13:04:28Z</time>
      </trkpt>
      <trkpt lat="44.31849" lon="5.87581">
        <ele>718.7229004</ele>
        <time>2016-02-15T13:04:33Z</time>
      </trkpt>
      <trkpt lat="44.31878" lon="5.87577">
        <ele>720.6455078</ele>
        <time>2016-02-15T13:04:44Z</time>
      </trkpt>
      <trkpt lat="44.31894" lon="5.87573">
        <ele>721.6066895</ele>
        <time>2016-02-15T13:04:52Z</time>
      </trkpt>
      <trkpt lat="44.31898" lon="5.8757">
        <ele>722.5681152</ele>
        <time>2016-02-15T13:04:54Z</time>
      </trkpt>
      <trkpt lat="44.31899" lon="5.87568">
        <ele>722.5681152</ele>
        <time>2016-02-15T13:04:55Z</time>
      </trkpt>
      <trkpt lat="44.31918" lon="5.87565">
        <ele>724.9714355</ele>
        <time>2016-02-15T13:05:05Z</time>
      </trkpt>
      <trkpt lat="44.31934" lon="5.87551">
        <ele>727.3747559</ele>
        <time>2016-02-15T13:05:17Z</time>
      </trkpt>
      <trkpt lat="44.31935" lon="5.87546">
        <ele>728.3359375</ele>
        <time>2016-02-15T13:05:22Z</time>
      </trkpt>
      <trkpt lat="44.31942" lon="5.87547">
        <ele>727.3747559</ele>
        <time>2016-02-15T13:05:32Z</time>
      </trkpt>
      <trkpt lat="44.31944" lon="5.87551">
        <ele>726.894043</ele>
        <time>2016-02-15T13:05:42Z</time>
      </trkpt>
      <trkpt lat="44.31956" lon="5.87606">
        <ele>723.529541</ele>
        <time>2016-02-15T13:05:53Z</time>
      </trkpt>
      <trkpt lat="44.31957" lon="5.87612">
        <ele>723.529541</ele>
        <time>2016-02-15T13:05:54Z</time>
      </trkpt>
      <trkpt lat="44.31962" lon="5.87645">
        <ele>720.6455078</ele>
        <time>2016-02-15T13:05:59Z</time>
      </trkpt>
      <trkpt lat="44.31965" lon="5.8766">
        <ele>719.6843262</ele>
        <time>2016-02-15T13:06:01Z</time>
      </trkpt>
      <trkpt lat="44.31967" lon="5.87679">
        <ele>717.7614746</ele>
        <time>2016-02-15T13:06:04Z</time>
      </trkpt>
      <trkpt lat="44.31968" lon="5.87689">
        <ele>716.800293</ele>
        <time>2016-02-15T13:06:08Z</time>
      </trkpt>
      <trkpt lat="44.31971" lon="5.877">
        <ele>716.800293</ele>
        <time>2016-02-15T13:06:12Z</time>
      </trkpt>
      <trkpt lat="44.31986" lon="5.87753">
        <ele>713.4355469</ele>
        <time>2016-02-15T13:06:21Z</time>
      </trkpt>
      <trkpt lat="44.32009" lon="5.87802">
        <ele>711.9936523</ele>
        <time>2016-02-15T13:06:29Z</time>
      </trkpt>
      <trkpt lat="44.32016" lon="5.87813">
        <ele>711.0322266</ele>
        <time>2016-02-15T13:06:31Z</time>
      </trkpt>
      <trkpt lat="44.32024" lon="5.87822">
        <ele>710.0708008</ele>
        <time>2016-02-15T13:06:33Z</time>
      </trkpt>
      <trkpt lat="44.3204" lon="5.87833">
        <ele>708.1484375</ele>
        <time>2016-02-15T13:06:37Z</time>
      </trkpt>
      <trkpt lat="44.32051" lon="5.87836">
        <ele>707.1870117</ele>
        <time>2016-02-15T13:06:39Z</time>
      </trkpt>
      <trkpt lat="44.32081" lon="5.8783">
        <ele>705.2644043</ele>
        <time>2016-02-15T13:06:44Z</time>
      </trkpt>
      <trkpt lat="44.32097" lon="5.87819">
        <ele>704.7836914</ele>
        <time>2016-02-15T13:06:47Z</time>
      </trkpt>
      <trkpt lat="44.32119" lon="5.87785">
        <ele>703.3417969</ele>
        <time>2016-02-15T13:06:52Z</time>
      </trkpt>
      <trkpt lat="44.32125" lon="5.87773">
        <ele>703.8225098</ele>
        <time>2016-02-15T13:06:54Z</time>
      </trkpt>
      <trkpt lat="44.32134" lon="5.87742">
        <ele>701.4191895</ele>
        <time>2016-02-15T13:06:59Z</time>
      </trkpt>
      <trkpt lat="44.32145" lon="5.87748">
        <ele>698.5349121</ele>
        <time>2016-02-15T13:07:05Z</time>
      </trkpt>
      <trkpt lat="44.32149" lon="5.87762">
        <ele>697.5737305</ele>
        <time>2016-02-15T13:07:07Z</time>
      </trkpt>
      <trkpt lat="44.32179" lon="5.87812">
        <ele>694.2092285</ele>
        <time>2016-02-15T13:07:14Z</time>
      </trkpt>
      <trkpt lat="44.32193" lon="5.87836">
        <ele>692.767334</ele>
        <time>2016-02-15T13:07:17Z</time>
      </trkpt>
      <trkpt lat="44.32208" lon="5.87873">
        <ele>690.3640137</ele>
        <time>2016-02-15T13:07:22Z</time>
      </trkpt>
      <trkpt lat="44.32209" lon="5.87915">
        <ele>686.5187988</ele>
        <time>2016-02-15T13:07:28Z</time>
      </trkpt>
      <trkpt lat="44.32204" lon="5.8792">
        <ele>686.5187988</ele>
        <time>2016-02-15T13:07:29Z</time>
      </trkpt>
      <trkpt lat="44.32174" lon="5.87916">
        <ele>683.6345215</ele>
        <time>2016-02-15T13:07:35Z</time>
      </trkpt>
      <trkpt lat="44.3217" lon="5.87915">
        <ele>683.6345215</ele>
        <time>2016-02-15T13:07:36Z</time>
      </trkpt>
      <trkpt lat="44.32167" lon="5.87932">
        <ele>681.7119141</ele>
        <time>2016-02-15T13:07:42Z</time>
      </trkpt>
      <trkpt lat="44.32169" lon="5.87934">
        <ele>681.7119141</ele>
        <time>2016-02-15T13:07:43Z</time>
      </trkpt>
      <trkpt lat="44.32192" lon="5.87981">
        <ele>677.8666992</ele>
        <time>2016-02-15T13:07:49Z</time>
      </trkpt>
      <trkpt lat="44.32203" lon="5.88017">
        <ele>676.9055176</ele>
        <time>2016-02-15T13:07:52Z</time>
      </trkpt>
      <trkpt lat="44.32208" lon="5.88042">
        <ele>675.4633789</ele>
        <time>2016-02-15T13:07:54Z</time>
      </trkpt>
      <trkpt lat="44.32217" lon="5.88086">
        <ele>670.6569824</ele>
        <time>2016-02-15T13:07:58Z</time>
      </trkpt>
      <trkpt lat="44.32219" lon="5.88097">
        <ele>670.6569824</ele>
        <time>2016-02-15T13:07:59Z</time>
      </trkpt>
      <trkpt lat="44.32223" lon="5.88117">
        <ele>669.2150879</ele>
        <time>2016-02-15T13:08:01Z</time>
      </trkpt>
      <trkpt lat="44.32228" lon="5.88138">
        <ele>668.734375</ele>
        <time>2016-02-15T13:08:03Z</time>
      </trkpt>
      <trkpt lat="44.32231" lon="5.88167">
        <ele>666.3308105</ele>
        <time>2016-02-15T13:08:06Z</time>
      </trkpt>
      <trkpt lat="44.32231" lon="5.88198">
        <ele>665.3696289</ele>
        <time>2016-02-15T13:08:11Z</time>
      </trkpt>
      <trkpt lat="44.32249" lon="5.88196">
        <ele>664.4082031</ele>
        <time>2016-02-15T13:08:16Z</time>
      </trkpt>
      <trkpt lat="44.3228" lon="5.88158">
        <ele>662.4855957</ele>
        <time>2016-02-15T13:08:24Z</time>
      </trkpt>
      <trkpt lat="44.32294" lon="5.88138">
        <ele>662.005127</ele>
        <time>2016-02-15T13:08:27Z</time>
      </trkpt>
      <trkpt lat="44.32302" lon="5.88122">
        <ele>661.0437012</ele>
        <time>2016-02-15T13:08:30Z</time>
      </trkpt>
      <trkpt lat="44.32314" lon="5.88127">
        <ele>658.1599121</ele>
        <time>2016-02-15T13:08:35Z</time>
      </trkpt>
      <trkpt lat="44.32315" lon="5.88134">
        <ele>658.1599121</ele>
        <time>2016-02-15T13:08:36Z</time>
      </trkpt>
      <trkpt lat="44.32315" lon="5.88167">
        <ele>655.7565918</ele>
        <time>2016-02-15T13:08:40Z</time>
      </trkpt>
      <trkpt lat="44.32315" lon="5.88186">
        <ele>653.8339844</ele>
        <time>2016-02-15T13:08:42Z</time>
      </trkpt>
      <trkpt lat="44.32316" lon="5.88225">
        <ele>652.3918457</ele>
        <time>2016-02-15T13:08:46Z</time>
      </trkpt>
      <trkpt lat="44.32317" lon="5.88241">
        <ele>652.3918457</ele>
        <time>2016-02-15T13:08:48Z</time>
      </trkpt>
      <trkpt lat="44.32329" lon="5.8826">
        <ele>651.4304199</ele>
        <time>2016-02-15T13:08:53Z</time>
      </trkpt>
      <trkpt lat="44.32344" lon="5.88254">
        <ele>649.9885254</ele>
        <time>2016-02-15T13:08:57Z</time>
      </trkpt>
      <trkpt lat="44.32384" lon="5.88223">
        <ele>647.1044922</ele>
        <time>2016-02-15T13:09:07Z</time>
      </trkpt>
      <trkpt lat="44.32384" lon="5.88224">
        <ele>647.5852051</ele>
        <time>2016-02-15T13:09:27Z</time>
      </trkpt>
      <trkpt lat="44.32364" lon="5.88205">
        <ele>679.7893066</ele>
        <time>2016-02-15T13:09:59Z</time>
      </trkpt>
      <trkpt lat="44.32364" lon="5.88204">
        <ele>650.949707</ele>
        <time>2016-02-15T13:10:02Z</time>
      </trkpt>
      <trkpt lat="44.3237" lon="5.88208">
        <ele>655.7565918</ele>
        <time>2016-02-15T13:10:13Z</time>
      </trkpt>
      <trkpt lat="44.3237" lon="5.88208">
        <ele>656.2370605</ele>
        <time>2016-02-15T13:10:17Z</time>
      </trkpt>
      <trkpt lat="44.3237" lon="5.88208">
        <ele>654.795166</ele>
        <time>2016-02-15T13:10:22Z</time>
      </trkpt>
      <trkpt lat="44.32371" lon="5.88208">
        <ele>656.7177734</ele>
        <time>2016-02-15T13:10:24Z</time>
      </trkpt>
      <trkpt lat="44.32375" lon="5.88211">
        <ele>656.7177734</ele>
        <time>2016-02-15T13:11:52Z</time>
      </trkpt>
      <trkpt lat="44.32372" lon="5.88222">
        <ele>656.2370605</ele>
        <time>2016-02-15T13:12:04Z</time>
      </trkpt>
      <trkpt lat="44.32375" lon="5.88227">
        <ele>655.7565918</ele>
        <time>2016-02-15T13:12:17Z</time>
      </trkpt>
      <trkpt lat="44.32368" lon="5.88233">
        <ele>654.795166</ele>
        <time>2016-02-15T13:13:13Z</time>
      </trkpt>
      <trkpt lat="44.32372" lon="5.88227">
        <ele>655.7565918</ele>
        <time>2016-02-15T13:13:34Z</time>
      </trkpt>
      <trkpt lat="44.32376" lon="5.88225">
        <ele>655.2758789</ele>
        <time>2016-02-15T13:14:01Z</time>
      </trkpt>
      <trkpt lat="44.32376" lon="5.88226">
        <ele>654.795166</ele>
        <time>2016-02-15T13:14:07Z</time>
      </trkpt>
      <trkpt lat="44.32379" lon="5.88232">
        <ele>654.795166</ele>
        <time>2016-02-15T13:14:10Z</time>
      </trkpt>
      <trkpt lat="44.32363" lon="5.88274">
        <ele>653.8339844</ele>
        <time>2016-02-15T13:14:22Z</time>
      </trkpt>
      <trkpt lat="44.32333" lon="5.88363">
        <ele>650.949707</ele>
        <time>2016-02-15T13:14:39Z</time>
      </trkpt>
      <trkpt lat="44.32328" lon="5.88381">
        <ele>650.4692383</ele>
        <time>2016-02-15T13:14:42Z</time>
      </trkpt>
      <trkpt lat="44.32317" lon="5.88402">
        <ele>649.9885254</ele>
        <time>2016-02-15T13:14:46Z</time>
      </trkpt>
      <trkpt lat="44.32283" lon="5.8842">
        <ele>648.5463867</ele>
        <time>2016-02-15T13:14:56Z</time>
      </trkpt>
      <trkpt lat="44.32281" lon="5.8842">
        <ele>648.5463867</ele>
        <time>2016-02-15T13:14:57Z</time>
      </trkpt>
      <trkpt lat="44.32279" lon="5.88419">
        <ele>651.9111328</ele>
        <time>2016-02-15T13:15:08Z</time>
      </trkpt>
      <trkpt lat="44.32279" lon="5.88419">
        <ele>651.9111328</ele>
        <time>2016-02-15T13:15:09Z</time>
      </trkpt>
      <trkpt lat="44.32279" lon="5.88419">
        <ele>648.065918</ele>
        <time>2016-02-15T13:15:10Z</time>
      </trkpt>
      <trkpt lat="44.32279" lon="5.88419">
        <ele>648.065918</ele>
        <time>2016-02-15T13:15:11Z</time>
      </trkpt>
      <trkpt lat="44.32267" lon="5.88424">
        <ele>647.1044922</ele>
        <time>2016-02-15T13:15:30Z</time>
      </trkpt>
      <trkpt lat="44.32244" lon="5.88427">
        <ele>646.6240234</ele>
        <time>2016-02-15T13:15:36Z</time>
      </trkpt>
      <trkpt lat="44.3223" lon="5.88431">
        <ele>646.6240234</ele>
        <time>2016-02-15T13:15:39Z</time>
      </trkpt>
      <trkpt lat="44.32219" lon="5.88436">
        <ele>646.1433105</ele>
        <time>2016-02-15T13:15:41Z</time>
      </trkpt>
      <trkpt lat="44.32199" lon="5.88451">
        <ele>645.6625977</ele>
        <time>2016-02-15T13:15:45Z</time>
      </trkpt>
      <trkpt lat="44.3217" lon="5.88481">
        <ele>644.2207031</ele>
        <time>2016-02-15T13:15:51Z</time>
      </trkpt>
      <trkpt lat="44.32136" lon="5.88511">
        <ele>642.7788086</ele>
        <time>2016-02-15T13:15:57Z</time>
      </trkpt>
      <trkpt lat="44.32115" lon="5.88523">
        <ele>641.3366699</ele>
        <time>2016-02-15T13:16:00Z</time>
      </trkpt>
      <trkpt lat="44.3208" lon="5.88546">
        <ele>640.3754883</ele>
        <time>2016-02-15T13:16:05Z</time>
      </trkpt>
      <trkpt lat="44.32039" lon="5.88571">
        <ele>638.4528809</ele>
        <time>2016-02-15T13:16:11Z</time>
      </trkpt>
      <trkpt lat="44.32005" lon="5.88572">
        <ele>637.4914551</ele>
        <time>2016-02-15T13:16:16Z</time>
      </trkpt>
      <trkpt lat="44.31998" lon="5.8857">
        <ele>637.4914551</ele>
        <time>2016-02-15T13:16:17Z</time>
      </trkpt>
      <trkpt lat="44.31976" lon="5.88565">
        <ele>636.5302734</ele>
        <time>2016-02-15T13:16:20Z</time>
      </trkpt>
      <trkpt lat="44.319" lon="5.88581">
        <ele>634.126709</ele>
        <time>2016-02-15T13:16:30Z</time>
      </trkpt>
      <trkpt lat="44.31858" lon="5.88614">
        <ele>632.2041016</ele>
        <time>2016-02-15T13:16:36Z</time>
      </trkpt>
      <trkpt lat="44.31831" lon="5.88629">
        <ele>631.2429199</ele>
        <time>2016-02-15T13:16:40Z</time>
      </trkpt>
      <trkpt lat="44.31801" lon="5.88637">
        <ele>629.3200684</ele>
        <time>2016-02-15T13:16:44Z</time>
      </trkpt>
      <trkpt lat="44.31758" lon="5.88657">
        <ele>625.9555664</ele>
        <time>2016-02-15T13:16:50Z</time>
      </trkpt>
      <trkpt lat="44.31736" lon="5.8866">
        <ele>625.4748535</ele>
        <time>2016-02-15T13:16:53Z</time>
      </trkpt>
      <trkpt lat="44.31722" lon="5.88657">
        <ele>624.032959</ele>
        <time>2016-02-15T13:16:55Z</time>
      </trkpt>
      <trkpt lat="44.31703" lon="5.8865">
        <ele>622.1103516</ele>
        <time>2016-02-15T13:16:58Z</time>
      </trkpt>
      <trkpt lat="44.31697" lon="5.88647">
        <ele>621.6296387</ele>
        <time>2016-02-15T13:16:59Z</time>
      </trkpt>
      <trkpt lat="44.3168" lon="5.88644">
        <ele>621.1491699</ele>
        <time>2016-02-15T13:17:02Z</time>
      </trkpt>
      <trkpt lat="44.31666" lon="5.88651">
        <ele>618.7456055</ele>
        <time>2016-02-15T13:17:05Z</time>
      </trkpt>
      <trkpt lat="44.31665" lon="5.88649">
        <ele>616.3422852</ele>
        <time>2016-02-15T13:17:06Z</time>
      </trkpt>
      <trkpt lat="44.31647" lon="5.8869">
        <ele>614.9003906</ele>
        <time>2016-02-15T13:17:12Z</time>
      </trkpt>
      <trkpt lat="44.31636" lon="5.88736">
        <ele>614.4196777</ele>
        <time>2016-02-15T13:17:21Z</time>
      </trkpt>
      <trkpt lat="44.31628" lon="5.88758">
        <ele>613.9389648</ele>
        <time>2016-02-15T13:17:25Z</time>
      </trkpt>
      <trkpt lat="44.31608" lon="5.88815">
        <ele>611.0551758</ele>
        <time>2016-02-15T13:17:33Z</time>
      </trkpt>
      <trkpt lat="44.31593" lon="5.88855">
        <ele>608.6518555</ele>
        <time>2016-02-15T13:17:37Z</time>
      </trkpt>
      <trkpt lat="44.31571" lon="5.88914">
        <ele>606.729248</ele>
        <time>2016-02-15T13:17:42Z</time>
      </trkpt>
      <trkpt lat="44.31562" lon="5.88938">
        <ele>605.2873535</ele>
        <time>2016-02-15T13:17:44Z</time>
      </trkpt>
      <trkpt lat="44.31554" lon="5.88961">
        <ele>603.8452148</ele>
        <time>2016-02-15T13:17:46Z</time>
      </trkpt>
      <trkpt lat="44.31542" lon="5.88993">
        <ele>601.4418945</ele>
        <time>2016-02-15T13:17:49Z</time>
      </trkpt>
      <trkpt lat="44.31513" lon="5.89081">
        <ele>598.5578613</ele>
        <time>2016-02-15T13:18:00Z</time>
      </trkpt>
      <trkpt lat="44.31512" lon="5.89094">
        <ele>598.5578613</ele>
        <time>2016-02-15T13:18:08Z</time>
      </trkpt>
      <trkpt lat="44.31521" lon="5.891">
        <ele>598.0773926</ele>
        <time>2016-02-15T13:18:13Z</time>
      </trkpt>
      <trkpt lat="44.31537" lon="5.89101">
        <ele>598.0773926</ele>
        <time>2016-02-15T13:18:18Z</time>
      </trkpt>
      <trkpt lat="44.31549" lon="5.89102">
        <ele>597.5966797</ele>
        <time>2016-02-15T13:18:21Z</time>
      </trkpt>
      <trkpt lat="44.31557" lon="5.89101">
        <ele>597.5966797</ele>
        <time>2016-02-15T13:18:23Z</time>
      </trkpt>
      <trkpt lat="44.31602" lon="5.89102">
        <ele>596.1547852</ele>
        <time>2016-02-15T13:18:31Z</time>
      </trkpt>
      <trkpt lat="44.3169" lon="5.89101">
        <ele>593.7514648</ele>
        <time>2016-02-15T13:18:46Z</time>
      </trkpt>
      <trkpt lat="44.317" lon="5.89099">
        <ele>593.270752</ele>
        <time>2016-02-15T13:18:48Z</time>
      </trkpt>
      <trkpt lat="44.3178" lon="5.89067">
        <ele>590.8674316</ele>
        <time>2016-02-15T13:19:02Z</time>
      </trkpt>
      <trkpt lat="44.31808" lon="5.89045">
        <ele>589.4255371</ele>
        <time>2016-02-15T13:19:08Z</time>
      </trkpt>
      <trkpt lat="44.31834" lon="5.89025">
        <ele>589.4255371</ele>
        <time>2016-02-15T13:19:14Z</time>
      </trkpt>
      <trkpt lat="44.31872" lon="5.89002">
        <ele>587.9833984</ele>
        <time>2016-02-15T13:19:22Z</time>
      </trkpt>
      <trkpt lat="44.31938" lon="5.88995">
        <ele>586.060791</ele>
        <time>2016-02-15T13:19:33Z</time>
      </trkpt>
      <trkpt lat="44.31944" lon="5.88996">
        <ele>585.5800781</ele>
        <time>2016-02-15T13:19:34Z</time>
      </trkpt>
      <trkpt lat="44.31964" lon="5.89004">
        <ele>585.5800781</ele>
        <time>2016-02-15T13:19:37Z</time>
      </trkpt>
      <trkpt lat="44.32002" lon="5.89034">
        <ele>583.6574707</ele>
        <time>2016-02-15T13:19:47Z</time>
      </trkpt>
      <trkpt lat="44.32041" lon="5.89054">
        <ele>583.1767578</ele>
        <time>2016-02-15T13:19:55Z</time>
      </trkpt>
      <trkpt lat="44.32101" lon="5.89063">
        <ele>580.7736816</ele>
        <time>2016-02-15T13:20:05Z</time>
      </trkpt>
      <trkpt lat="44.32118" lon="5.89066">
        <ele>579.331543</ele>
        <time>2016-02-15T13:20:08Z</time>
      </trkpt>
      <trkpt lat="44.32188" lon="5.89086">
        <ele>579.331543</ele>
        <time>2016-02-15T13:20:21Z</time>
      </trkpt>
      <trkpt lat="44.32273" lon="5.89113">
        <ele>579.331543</ele>
        <time>2016-02-15T13:20:37Z</time>
      </trkpt>
      <trkpt lat="44.32352" lon="5.89138">
        <ele>579.331543</ele>
        <time>2016-02-15T13:20:52Z</time>
      </trkpt>
      <trkpt lat="44.32421" lon="5.89159">
        <ele>578.8510742</ele>
        <time>2016-02-15T13:21:06Z</time>
      </trkpt>
      <trkpt lat="44.32476" lon="5.89175">
        <ele>578.8510742</ele>
        <time>2016-02-15T13:21:17Z</time>
      </trkpt>
      <trkpt lat="44.32545" lon="5.89199">
        <ele>579.8122559</ele>
        <time>2016-02-15T13:21:31Z</time>
      </trkpt>
      <trkpt lat="44.32606" lon="5.89235">
        <ele>579.8122559</ele>
        <time>2016-02-15T13:21:47Z</time>
      </trkpt>
      <trkpt lat="44.32671" lon="5.89278">
        <ele>580.2929688</ele>
        <time>2016-02-15T13:22:02Z</time>
      </trkpt>
      <trkpt lat="44.32728" lon="5.89324">
        <ele>579.8122559</ele>
        <time>2016-02-15T13:22:16Z</time>
      </trkpt>
      <trkpt lat="44.32811" lon="5.8938">
        <ele>579.8122559</ele>
        <time>2016-02-15T13:22:33Z</time>
      </trkpt>
      <trkpt lat="44.32834" lon="5.89397">
        <ele>580.2929688</ele>
        <time>2016-02-15T13:22:38Z</time>
      </trkpt>
      <trkpt lat="44.32868" lon="5.89418">
        <ele>579.8122559</ele>
        <time>2016-02-15T13:22:45Z</time>
      </trkpt>
      <trkpt lat="44.32903" lon="5.89442">
        <ele>578.8510742</ele>
        <time>2016-02-15T13:22:53Z</time>
      </trkpt>
      <trkpt lat="44.32928" lon="5.89461">
        <ele>578.8510742</ele>
        <time>2016-02-15T13:22:59Z</time>
      </trkpt>
      <trkpt lat="44.32988" lon="5.89488">
        <ele>580.2929688</ele>
        <time>2016-02-15T13:23:11Z</time>
      </trkpt>
      <trkpt lat="44.33041" lon="5.89518">
        <ele>580.2929688</ele>
        <time>2016-02-15T13:23:23Z</time>
      </trkpt>
      <trkpt lat="44.33082" lon="5.89532">
        <ele>580.2929688</ele>
        <time>2016-02-15T13:23:32Z</time>
      </trkpt>
      <trkpt lat="44.33117" lon="5.89542">
        <ele>580.2929688</ele>
        <time>2016-02-15T13:23:39Z</time>
      </trkpt>
      <trkpt lat="44.33184" lon="5.89561">
        <ele>579.8122559</ele>
        <time>2016-02-15T13:23:52Z</time>
      </trkpt>
      <trkpt lat="44.33216" lon="5.89571">
        <ele>579.8122559</ele>
        <time>2016-02-15T13:23:58Z</time>
      </trkpt>
      <trkpt lat="44.33233" lon="5.89578">
        <ele>579.8122559</ele>
        <time>2016-02-15T13:24:02Z</time>
      </trkpt>
      <trkpt lat="44.33267" lon="5.89587">
        <ele>580.2929688</ele>
        <time>2016-02-15T13:24:09Z</time>
      </trkpt>
      <trkpt lat="44.33294" lon="5.89595">
        <ele>580.2929688</ele>
        <time>2016-02-15T13:24:15Z</time>
      </trkpt>
      <trkpt lat="44.33342" lon="5.89615">
        <ele>579.8122559</ele>
        <time>2016-02-15T13:24:27Z</time>
      </trkpt>
      <trkpt lat="44.33407" lon="5.89645">
        <ele>579.331543</ele>
        <time>2016-02-15T13:24:41Z</time>
      </trkpt>
      <trkpt lat="44.33475" lon="5.89679">
        <ele>580.2929688</ele>
        <time>2016-02-15T13:24:56Z</time>
      </trkpt>
      <trkpt lat="44.3353" lon="5.8971">
        <ele>580.7736816</ele>
        <time>2016-02-15T13:25:09Z</time>
      </trkpt>
      <trkpt lat="44.33571" lon="5.89731">
        <ele>580.7736816</ele>
        <time>2016-02-15T13:25:18Z</time>
      </trkpt>
      <trkpt lat="44.3359" lon="5.89744">
        <ele>581.2543945</ele>
        <time>2016-02-15T13:25:22Z</time>
      </trkpt>
      <trkpt lat="44.33658" lon="5.89768">
        <ele>581.7348633</ele>
        <time>2016-02-15T13:25:36Z</time>
      </trkpt>
      <trkpt lat="44.33702" lon="5.89789">
        <ele>580.2929688</ele>
        <time>2016-02-15T13:25:46Z</time>
      </trkpt>
      <trkpt lat="44.33722" lon="5.89802">
        <ele>578.3703613</ele>
        <time>2016-02-15T13:25:50Z</time>
      </trkpt>
      <trkpt lat="44.33754" lon="5.89821">
        <ele>575.967041</ele>
        <time>2016-02-15T13:25:55Z</time>
      </trkpt>
      <trkpt lat="44.33759" lon="5.89826">
        <ele>577.4091797</ele>
        <time>2016-02-15T13:25:56Z</time>
      </trkpt>
      <trkpt lat="44.33774" lon="5.89836">
        <ele>577.8896484</ele>
        <time>2016-02-15T13:25:59Z</time>
      </trkpt>
      <trkpt lat="44.33794" lon="5.89851">
        <ele>578.3703613</ele>
        <time>2016-02-15T13:26:03Z</time>
      </trkpt>
      <trkpt lat="44.33805" lon="5.89863">
        <ele>580.2929688</ele>
        <time>2016-02-15T13:26:07Z</time>
      </trkpt>
      <trkpt lat="44.3384" lon="5.89888">
        <ele>581.7348633</ele>
        <time>2016-02-15T13:26:19Z</time>
      </trkpt>
      <trkpt lat="44.33865" lon="5.89915">
        <ele>584.1381836</ele>
        <time>2016-02-15T13:26:32Z</time>
      </trkpt>
      <trkpt lat="44.33888" lon="5.89926">
        <ele>585.5800781</ele>
        <time>2016-02-15T13:26:38Z</time>
      </trkpt>
      <trkpt lat="44.33912" lon="5.8995">
        <ele>586.060791</ele>
        <time>2016-02-15T13:26:48Z</time>
      </trkpt>
      <trkpt lat="44.33955" lon="5.89993">
        <ele>586.5415039</ele>
        <time>2016-02-15T13:27:05Z</time>
      </trkpt>
      <trkpt lat="44.34005" lon="5.90056">
        <ele>585.5800781</ele>
        <time>2016-02-15T13:27:20Z</time>
      </trkpt>
      <trkpt lat="44.34036" lon="5.90086">
        <ele>587.0219727</ele>
        <time>2016-02-15T13:27:31Z</time>
      </trkpt>
      <trkpt lat="44.34054" lon="5.901">
        <ele>587.5026855</ele>
        <time>2016-02-15T13:27:38Z</time>
      </trkpt>
      <trkpt lat="44.34072" lon="5.9012">
        <ele>588.9450684</ele>
        <time>2016-02-15T13:27:48Z</time>
      </trkpt>
      <trkpt lat="44.34103" lon="5.90147">
        <ele>591.8288574</ele>
        <time>2016-02-15T13:28:04Z</time>
      </trkpt>
      <trkpt lat="44.34136" lon="5.90176">
        <ele>593.270752</ele>
        <time>2016-02-15T13:28:19Z</time>
      </trkpt>
      <trkpt lat="44.34151" lon="5.90192">
        <ele>593.270752</ele>
        <time>2016-02-15T13:28:25Z</time>
      </trkpt>
      <trkpt lat="44.34204" lon="5.90258">
        <ele>589.90625</ele>
        <time>2016-02-15T13:28:40Z</time>
      </trkpt>
      <trkpt lat="44.34249" lon="5.90313">
        <ele>587.0219727</ele>
        <time>2016-02-15T13:28:47Z</time>
      </trkpt>
      <trkpt lat="44.34261" lon="5.9033">
        <ele>585.5800781</ele>
        <time>2016-02-15T13:28:49Z</time>
      </trkpt>
      <trkpt lat="44.34266" lon="5.90348">
        <ele>584.1381836</ele>
        <time>2016-02-15T13:28:51Z</time>
      </trkpt>
      <trkpt lat="44.34305" lon="5.90389">
        <ele>581.7348633</ele>
        <time>2016-02-15T13:28:56Z</time>
      </trkpt>
      <trkpt lat="44.34346" lon="5.90427">
        <ele>580.2929688</ele>
        <time>2016-02-15T13:29:02Z</time>
      </trkpt>
      <trkpt lat="44.34382" lon="5.90447">
        <ele>582.6962891</ele>
        <time>2016-02-15T13:29:09Z</time>
      </trkpt>
      <trkpt lat="44.34414" lon="5.90466">
        <ele>584.6188965</ele>
        <time>2016-02-15T13:29:21Z</time>
      </trkpt>
      <trkpt lat="44.34421" lon="5.90482">
        <ele>583.6574707</ele>
        <time>2016-02-15T13:29:24Z</time>
      </trkpt>
      <trkpt lat="44.34432" lon="5.90503">
        <ele>583.6574707</ele>
        <time>2016-02-15T13:29:28Z</time>
      </trkpt>
      <trkpt lat="44.34454" lon="5.90528">
        <ele>582.2155762</ele>
        <time>2016-02-15T13:29:33Z</time>
      </trkpt>
      <trkpt lat="44.34465" lon="5.90539">
        <ele>582.2155762</ele>
        <time>2016-02-15T13:29:35Z</time>
      </trkpt>
      <trkpt lat="44.34522" lon="5.90585">
        <ele>580.7736816</ele>
        <time>2016-02-15T13:29:47Z</time>
      </trkpt>
      <trkpt lat="44.34607" lon="5.90656">
        <ele>581.2543945</ele>
        <time>2016-02-15T13:30:06Z</time>
      </trkpt>
      <trkpt lat="44.34667" lon="5.90699">
        <ele>578.3703613</ele>
        <time>2016-02-15T13:30:17Z</time>
      </trkpt>
      <trkpt lat="44.34744" lon="5.9075">
        <ele>574.0444336</ele>
        <time>2016-02-15T13:30:27Z</time>
      </trkpt>
      <trkpt lat="44.34752" lon="5.90756">
        <ele>574.0444336</ele>
        <time>2016-02-15T13:30:28Z</time>
      </trkpt>
      <trkpt lat="44.34836" lon="5.90824">
        <ele>571.1604004</ele>
        <time>2016-02-15T13:30:41Z</time>
      </trkpt>
      <trkpt lat="44.34906" lon="5.90875">
        <ele>571.1604004</ele>
        <time>2016-02-15T13:30:54Z</time>
      </trkpt>
      <trkpt lat="44.34961" lon="5.90917">
        <ele>567.3151855</ele>
        <time>2016-02-15T13:31:04Z</time>
      </trkpt>
      <trkpt lat="44.34965" lon="5.90922">
        <ele>567.3151855</ele>
        <time>2016-02-15T13:31:05Z</time>
      </trkpt>
      <trkpt lat="44.35012" lon="5.90971">
        <ele>570.1989746</ele>
        <time>2016-02-15T13:31:18Z</time>
      </trkpt>
      <trkpt lat="44.35065" lon="5.91018">
        <ele>570.6796875</ele>
        <time>2016-02-15T13:31:35Z</time>
      </trkpt>
      <trkpt lat="44.35121" lon="5.91071">
        <ele>573.083252</ele>
        <time>2016-02-15T13:31:56Z</time>
      </trkpt>
      <trkpt lat="44.35175" lon="5.91122">
        <ele>575.4863281</ele>
        <time>2016-02-15T13:32:18Z</time>
      </trkpt>
      <trkpt lat="44.35216" lon="5.9116">
        <ele>575.4863281</ele>
        <time>2016-02-15T13:32:34Z</time>
      </trkpt>
      <trkpt lat="44.3528" lon="5.91218">
        <ele>577.4091797</ele>
        <time>2016-02-15T13:32:59Z</time>
      </trkpt>
      <trkpt lat="44.35347" lon="5.91274">
        <ele>577.4091797</ele>
        <time>2016-02-15T13:33:21Z</time>
      </trkpt>
      <trkpt lat="44.35414" lon="5.91322">
        <ele>577.4091797</ele>
        <time>2016-02-15T13:33:41Z</time>
      </trkpt>
      <trkpt lat="44.35488" lon="5.91371">
        <ele>579.331543</ele>
        <time>2016-02-15T13:34:01Z</time>
      </trkpt>
      <trkpt lat="44.35529" lon="5.91395">
        <ele>581.2543945</ele>
        <time>2016-02-15T13:34:13Z</time>
      </trkpt>
      <trkpt lat="44.35609" lon="5.91456">
        <ele>577.8896484</ele>
        <time>2016-02-15T13:34:35Z</time>
      </trkpt>
      <trkpt lat="44.35657" lon="5.91489">
        <ele>573.5639648</ele>
        <time>2016-02-15T13:34:46Z</time>
      </trkpt>
      <trkpt lat="44.35693" lon="5.91513">
        <ele>576.4477539</ele>
        <time>2016-02-15T13:34:54Z</time>
      </trkpt>
      <trkpt lat="44.35785" lon="5.91575">
        <ele>576.4477539</ele>
        <time>2016-02-15T13:35:15Z</time>
      </trkpt>
      <trkpt lat="44.3586" lon="5.91628">
        <ele>576.4477539</ele>
        <time>2016-02-15T13:35:35Z</time>
      </trkpt>
      <trkpt lat="44.35932" lon="5.91682">
        <ele>573.5639648</ele>
        <time>2016-02-15T13:35:55Z</time>
      </trkpt>
      <trkpt lat="44.3594" lon="5.91687">
        <ele>575.4863281</ele>
        <time>2016-02-15T13:35:57Z</time>
      </trkpt>
      <trkpt lat="44.3602" lon="5.91742">
        <ele>576.4477539</ele>
        <time>2016-02-15T13:36:19Z</time>
      </trkpt>
      <trkpt lat="44.36025" lon="5.91744">
        <ele>576.4477539</ele>
        <time>2016-02-15T13:36:20Z</time>
      </trkpt>
      <trkpt lat="44.36098" lon="5.91796">
        <ele>575.4863281</ele>
        <time>2016-02-15T13:36:41Z</time>
      </trkpt>
      <trkpt lat="44.36167" lon="5.91842">
        <ele>575.967041</ele>
        <time>2016-02-15T13:37:01Z</time>
      </trkpt>
      <trkpt lat="44.3623" lon="5.91885">
        <ele>575.967041</ele>
        <time>2016-02-15T13:37:19Z</time>
      </trkpt>
      <trkpt lat="44.36242" lon="5.91893">
        <ele>575.4863281</ele>
        <time>2016-02-15T13:37:22Z</time>
      </trkpt>
      <trkpt lat="44.36255" lon="5.91901">
        <ele>576.4477539</ele>
        <time>2016-02-15T13:37:25Z</time>
      </trkpt>
      <trkpt lat="44.36263" lon="5.91906">
        <ele>577.4091797</ele>
        <time>2016-02-15T13:37:27Z</time>
      </trkpt>
      <trkpt lat="44.36277" lon="5.91915">
        <ele>575.0058594</ele>
        <time>2016-02-15T13:37:30Z</time>
      </trkpt>
      <trkpt lat="44.36281" lon="5.91917">
        <ele>575.0058594</ele>
        <time>2016-02-15T13:37:31Z</time>
      </trkpt>
      <trkpt lat="44.36355" lon="5.91966">
        <ele>575.0058594</ele>
        <time>2016-02-15T13:37:50Z</time>
      </trkpt>
      <trkpt lat="44.36383" lon="5.91984">
        <ele>575.0058594</ele>
        <time>2016-02-15T13:37:57Z</time>
      </trkpt>
      <trkpt lat="44.36482" lon="5.92053">
        <ele>574.0444336</ele>
        <time>2016-02-15T13:38:21Z</time>
      </trkpt>
      <trkpt lat="44.3657" lon="5.92112">
        <ele>574.5251465</ele>
        <time>2016-02-15T13:38:43Z</time>
      </trkpt>
      <trkpt lat="44.36592" lon="5.92127">
        <ele>574.0444336</ele>
        <time>2016-02-15T13:38:48Z</time>
      </trkpt>
      <trkpt lat="44.36678" lon="5.92162">
        <ele>572.1218262</ele>
        <time>2016-02-15T13:39:08Z</time>
      </trkpt>
      <trkpt lat="44.36682" lon="5.92162">
        <ele>572.1218262</ele>
        <time>2016-02-15T13:39:09Z</time>
      </trkpt>
      <trkpt lat="44.36685" lon="5.92164">
        <ele>572.1218262</ele>
        <time>2016-02-15T13:39:10Z</time>
      </trkpt>
      <trkpt lat="44.36706" lon="5.92171">
        <ele>573.5639648</ele>
        <time>2016-02-15T13:39:16Z</time>
      </trkpt>
      <trkpt lat="44.36752" lon="5.92184">
        <ele>574.0444336</ele>
        <time>2016-02-15T13:39:28Z</time>
      </trkpt>
      <trkpt lat="44.36777" lon="5.92191">
        <ele>574.0444336</ele>
        <time>2016-02-15T13:39:35Z</time>
      </trkpt>
      <trkpt lat="44.36794" lon="5.92199">
        <ele>576.9284668</ele>
        <time>2016-02-15T13:39:42Z</time>
      </trkpt>
      <trkpt lat="44.36797" lon="5.92202">
        <ele>579.8122559</ele>
        <time>2016-02-15T13:39:44Z</time>
      </trkpt>
      <trkpt lat="44.36802" lon="5.92204">
        <ele>578.3703613</ele>
        <time>2016-02-15T13:39:46Z</time>
      </trkpt>
      <trkpt lat="44.36813" lon="5.92213">
        <ele>580.2929688</ele>
        <time>2016-02-15T13:39:54Z</time>
      </trkpt>
      <trkpt lat="44.36817" lon="5.92218">
        <ele>580.7736816</ele>
        <time>2016-02-15T13:40:09Z</time>
      </trkpt>
      <trkpt lat="44.36817" lon="5.92218">
        <ele>578.8510742</ele>
        <time>2016-02-15T13:40:21Z</time>
      </trkpt>
      <trkpt lat="44.36819" lon="5.92221">
        <ele>579.8122559</ele>
        <time>2016-02-15T13:40:31Z</time>
      </trkpt>
      <trkpt lat="44.3682" lon="5.92223">
        <ele>580.2929688</ele>
        <time>2016-02-15T13:40:53Z</time>
      </trkpt>
      <trkpt lat="44.3682" lon="5.92223">
        <ele>582.6962891</ele>
        <time>2016-02-15T13:40:56Z</time>
      </trkpt>
      <trkpt lat="44.3682" lon="5.92223">
        <ele>578.8510742</ele>
        <time>2016-02-15T13:41:06Z</time>
      </trkpt>
      <trkpt lat="44.3682" lon="5.92223">
        <ele>578.8510742</ele>
        <time>2016-02-15T13:41:07Z</time>
      </trkpt>
      <trkpt lat="44.3682" lon="5.92223">
        <ele>577.4091797</ele>
        <time>2016-02-15T13:41:09Z</time>
      </trkpt>
      <trkpt lat="44.36821" lon="5.92222">
        <ele>578.8510742</ele>
        <time>2016-02-15T13:41:18Z</time>
      </trkpt>
      <trkpt lat="44.36824" lon="5.92221">
        <ele>578.3703613</ele>
        <time>2016-02-15T13:41:25Z</time>
      </trkpt>
      <trkpt lat="44.36834" lon="5.92228">
        <ele>578.8510742</ele>
        <time>2016-02-15T13:41:30Z</time>
      </trkpt>
      <trkpt lat="44.36857" lon="5.92241">
        <ele>577.4091797</ele>
        <time>2016-02-15T13:41:36Z</time>
      </trkpt>
      <trkpt lat="44.36865" lon="5.92246">
        <ele>574.5251465</ele>
        <time>2016-02-15T13:41:38Z</time>
      </trkpt>
      <trkpt lat="44.3687" lon="5.92249">
        <ele>574.5251465</ele>
        <time>2016-02-15T13:41:39Z</time>
      </trkpt>
      <trkpt lat="44.36912" lon="5.92274">
        <ele>571.1604004</ele>
        <time>2016-02-15T13:41:47Z</time>
      </trkpt>
      <trkpt lat="44.36923" lon="5.92283">
        <ele>572.6025391</ele>
        <time>2016-02-15T13:41:49Z</time>
      </trkpt>
      <trkpt lat="44.36954" lon="5.92308">
        <ele>569.237793</ele>
        <time>2016-02-15T13:41:55Z</time>
      </trkpt>
      <trkpt lat="44.36993" lon="5.92344">
        <ele>569.237793</ele>
        <time>2016-02-15T13:42:04Z</time>
      </trkpt>
      <trkpt lat="44.37086" lon="5.92425">
        <ele>570.1989746</ele>
        <time>2016-02-15T13:42:24Z</time>
      </trkpt>
      <trkpt lat="44.37117" lon="5.9245">
        <ele>571.1604004</ele>
        <time>2016-02-15T13:42:31Z</time>
      </trkpt>
      <trkpt lat="44.37148" lon="5.92476">
        <ele>570.6796875</ele>
        <time>2016-02-15T13:42:38Z</time>
      </trkpt>
      <trkpt lat="44.37181" lon="5.92503">
        <ele>570.6796875</ele>
        <time>2016-02-15T13:42:46Z</time>
      </trkpt>
      <trkpt lat="44.37196" lon="5.92518">
        <ele>570.6796875</ele>
        <time>2016-02-15T13:42:50Z</time>
      </trkpt>
      <trkpt lat="44.37207" lon="5.92526">
        <ele>570.6796875</ele>
        <time>2016-02-15T13:42:53Z</time>
      </trkpt>
      <trkpt lat="44.37246" lon="5.92564">
        <ele>570.6796875</ele>
        <time>2016-02-15T13:43:05Z</time>
      </trkpt>
      <trkpt lat="44.37255" lon="5.92573">
        <ele>572.1218262</ele>
        <time>2016-02-15T13:43:08Z</time>
      </trkpt>
      <trkpt lat="44.37307" lon="5.9262">
        <ele>573.083252</ele>
        <time>2016-02-15T13:43:26Z</time>
      </trkpt>
      <trkpt lat="44.3735" lon="5.92653">
        <ele>575.967041</ele>
        <time>2016-02-15T13:43:41Z</time>
      </trkpt>
      <trkpt lat="44.37409" lon="5.92697">
        <ele>575.0058594</ele>
        <time>2016-02-15T13:44:01Z</time>
      </trkpt>
      <trkpt lat="44.37479" lon="5.92742">
        <ele>574.0444336</ele>
        <time>2016-02-15T13:44:20Z</time>
      </trkpt>
      <trkpt lat="44.37498" lon="5.92753">
        <ele>573.5639648</ele>
        <time>2016-02-15T13:44:25Z</time>
      </trkpt>
      <trkpt lat="44.37559" lon="5.92796">
        <ele>573.5639648</ele>
        <time>2016-02-15T13:44:41Z</time>
      </trkpt>
      <trkpt lat="44.37614" lon="5.92835">
        <ele>573.5639648</ele>
        <time>2016-02-15T13:44:56Z</time>
      </trkpt>
      <trkpt lat="44.37687" lon="5.92881">
        <ele>572.1218262</ele>
        <time>2016-02-15T13:45:14Z</time>
      </trkpt>
      <trkpt lat="44.37729" lon="5.9291">
        <ele>571.6408691</ele>
        <time>2016-02-15T13:45:25Z</time>
      </trkpt>
      <trkpt lat="44.378" lon="5.92956">
        <ele>571.6408691</ele>
        <time>2016-02-15T13:45:42Z</time>
      </trkpt>
      <trkpt lat="44.3788" lon="5.93007">
        <ele>570.6796875</ele>
        <time>2016-02-15T13:46:02Z</time>
      </trkpt>
      <trkpt lat="44.37921" lon="5.93036">
        <ele>572.1218262</ele>
        <time>2016-02-15T13:46:12Z</time>
      </trkpt>
      <trkpt lat="44.37952" lon="5.93058">
        <ele>572.6025391</ele>
        <time>2016-02-15T13:46:20Z</time>
      </trkpt>
      <trkpt lat="44.38013" lon="5.93104">
        <ele>573.083252</ele>
        <time>2016-02-15T13:46:38Z</time>
      </trkpt>
      <trkpt lat="44.3806" lon="5.9314">
        <ele>573.083252</ele>
        <time>2016-02-15T13:46:54Z</time>
      </trkpt>
      <trkpt lat="44.38102" lon="5.93171">
        <ele>573.5639648</ele>
        <time>2016-02-15T13:47:09Z</time>
      </trkpt>
      <trkpt lat="44.38151" lon="5.93208">
        <ele>575.4863281</ele>
        <time>2016-02-15T13:47:26Z</time>
      </trkpt>
      <trkpt lat="44.38154" lon="5.9321">
        <ele>575.4863281</ele>
        <time>2016-02-15T13:47:27Z</time>
      </trkpt>
      <trkpt lat="44.38207" lon="5.93247">
        <ele>575.4863281</ele>
        <time>2016-02-15T13:47:44Z</time>
      </trkpt>
      <trkpt lat="44.38238" lon="5.93265">
        <ele>575.0058594</ele>
        <time>2016-02-15T13:47:52Z</time>
      </trkpt>
      <trkpt lat="44.38258" lon="5.93278">
        <ele>574.5251465</ele>
        <time>2016-02-15T13:47:57Z</time>
      </trkpt>
      <trkpt lat="44.3833" lon="5.93324">
        <ele>574.5251465</ele>
        <time>2016-02-15T13:48:16Z</time>
      </trkpt>
      <trkpt lat="44.38337" lon="5.93329">
        <ele>572.6025391</ele>
        <time>2016-02-15T13:48:18Z</time>
      </trkpt>
      <trkpt lat="44.38433" lon="5.93393">
        <ele>573.083252</ele>
        <time>2016-02-15T13:48:42Z</time>
      </trkpt>
      <trkpt lat="44.38477" lon="5.93425">
        <ele>574.0444336</ele>
        <time>2016-02-15T13:48:54Z</time>
      </trkpt>
      <trkpt lat="44.38489" lon="5.93435">
        <ele>573.5639648</ele>
        <time>2016-02-15T13:48:58Z</time>
      </trkpt>
      <trkpt lat="44.385" lon="5.93445">
        <ele>573.5639648</ele>
        <time>2016-02-15T13:49:01Z</time>
      </trkpt>
      <trkpt lat="44.38562" lon="5.93487">
        <ele>574.0444336</ele>
        <time>2016-02-15T13:49:19Z</time>
      </trkpt>
      <trkpt lat="44.38608" lon="5.93522">
        <ele>576.9284668</ele>
        <time>2016-02-15T13:49:35Z</time>
      </trkpt>
      <trkpt lat="44.38648" lon="5.93553">
        <ele>579.331543</ele>
        <time>2016-02-15T13:49:53Z</time>
      </trkpt>
      <trkpt lat="44.38683" lon="5.93575">
        <ele>580.7736816</ele>
        <time>2016-02-15T13:50:10Z</time>
      </trkpt>
      <trkpt lat="44.38688" lon="5.93578">
        <ele>582.2155762</ele>
        <time>2016-02-15T13:50:13Z</time>
      </trkpt>
      <trkpt lat="44.38704" lon="5.93591">
        <ele>583.6574707</ele>
        <time>2016-02-15T13:50:23Z</time>
      </trkpt>
      <trkpt lat="44.38708" lon="5.93616">
        <ele>583.1767578</ele>
        <time>2016-02-15T13:50:30Z</time>
      </trkpt>
      <trkpt lat="44.38702" lon="5.93727">
        <ele>581.2543945</ele>
        <time>2016-02-15T13:50:48Z</time>
      </trkpt>
      <trkpt lat="44.38701" lon="5.93751">
        <ele>579.8122559</ele>
        <time>2016-02-15T13:50:51Z</time>
      </trkpt>
      <trkpt lat="44.38697" lon="5.93818">
        <ele>576.9284668</ele>
        <time>2016-02-15T13:50:58Z</time>
      </trkpt>
      <trkpt lat="44.38696" lon="5.93854">
        <ele>575.0058594</ele>
        <time>2016-02-15T13:51:02Z</time>
      </trkpt>
      <trkpt lat="44.38669" lon="5.93911">
        <ele>574.0444336</ele>
        <time>2016-02-15T13:51:10Z</time>
      </trkpt>
      <trkpt lat="44.38662" lon="5.93913">
        <ele>573.083252</ele>
        <time>2016-02-15T13:51:11Z</time>
      </trkpt>
      <trkpt lat="44.38616" lon="5.93921">
        <ele>568.7570801</ele>
        <time>2016-02-15T13:51:17Z</time>
      </trkpt>
      <trkpt lat="44.38608" lon="5.93922">
        <ele>568.7570801</ele>
        <time>2016-02-15T13:51:18Z</time>
      </trkpt>
      <trkpt lat="44.38582" lon="5.93926">
        <ele>566.3537598</ele>
        <time>2016-02-15T13:51:21Z</time>
      </trkpt>
      <trkpt lat="44.38566" lon="5.93929">
        <ele>564.9118652</ele>
        <time>2016-02-15T13:51:23Z</time>
      </trkpt>
      <trkpt lat="44.3855" lon="5.93932">
        <ele>562.9892578</ele>
        <time>2016-02-15T13:51:25Z</time>
      </trkpt>
      <trkpt lat="44.38529" lon="5.93936">
        <ele>560.5859375</ele>
        <time>2016-02-15T13:51:28Z</time>
      </trkpt>
      <trkpt lat="44.38523" lon="5.93937">
        <ele>560.1052246</ele>
        <time>2016-02-15T13:51:29Z</time>
      </trkpt>
      <trkpt lat="44.38501" lon="5.93969">
        <ele>557.7021484</ele>
        <time>2016-02-15T13:51:35Z</time>
      </trkpt>
      <trkpt lat="44.38501" lon="5.93978">
        <ele>557.7021484</ele>
        <time>2016-02-15T13:51:36Z</time>
      </trkpt>
      <trkpt lat="44.385" lon="5.94064">
        <ele>559.144043</ele>
        <time>2016-02-15T13:51:50Z</time>
      </trkpt>
      <trkpt lat="44.38493" lon="5.94125">
        <ele>559.6247559</ele>
        <time>2016-02-15T13:52:04Z</time>
      </trkpt>
      <trkpt lat="44.38483" lon="5.94181">
        <ele>559.6247559</ele>
        <time>2016-02-15T13:52:18Z</time>
      </trkpt>
      <trkpt lat="44.38479" lon="5.94208">
        <ele>560.5859375</ele>
        <time>2016-02-15T13:52:26Z</time>
      </trkpt>
      <trkpt lat="44.3848" lon="5.94222">
        <ele>560.5859375</ele>
        <time>2016-02-15T13:52:30Z</time>
      </trkpt>
      <trkpt lat="44.38479" lon="5.94242">
        <ele>560.1052246</ele>
        <time>2016-02-15T13:52:35Z</time>
      </trkpt>
      <trkpt lat="44.38486" lon="5.94243">
        <ele>559.6247559</ele>
        <time>2016-02-15T13:52:40Z</time>
      </trkpt>
      <trkpt lat="44.38499" lon="5.94243">
        <ele>560.1052246</ele>
        <time>2016-02-15T13:52:43Z</time>
      </trkpt>
      <trkpt lat="44.38508" lon="5.94229">
        <ele>560.5859375</ele>
        <time>2016-02-15T13:52:55Z</time>
      </trkpt>
      <trkpt lat="44.38508" lon="5.94229">
        <ele>559.144043</ele>
        <time>2016-02-15T13:53:03Z</time>
      </trkpt>
      <trkpt lat="44.38509" lon="5.94229">
        <ele>560.5859375</ele>
        <time>2016-02-15T13:53:07Z</time>
      </trkpt>
    </trkseg>
  </trk>
</gpx>